<?xml version="1.0" encoding="UTF-8" standalone="no" ?>
<gpx xmlns="http://www.topografix.com/GPX/1/1" xmlns:xsi="http://www.w3.org/2001/XMLSchema-instance" xsi:schemaLocation="http://www.topografix.com/GPX/1/1 http://www.topografix.com/GPX/1/1/gpx.xsd" version="1.1" creator="VisuGPX - https://www.visugpx.com">
  <metadata>
    <name>Samance,Roc des Tours.</name>
  </metadata>
  <trk>
    <name><![CDATA[Samance,Roc des Tours._2]]></name>
    <trkseg>
      <trkpt lat="45.97397" lon="6.4269">
        <ele>1992.9</ele>
        <time>2019-06-18T11:09:37Z</time>
      </trkpt>
      <trkpt lat="45.97398" lon="6.42682">
        <ele>1991.6</ele>
        <time>2019-06-18T11:10:49Z</time>
      </trkpt>
      <trkpt lat="45.97401" lon="6.42681">
        <ele>1990</ele>
        <time>2019-06-18T11:19:18Z</time>
      </trkpt>
      <trkpt lat="45.97404" lon="6.42676">
        <ele>1989.8</ele>
        <time>2019-06-18T11:19:25Z</time>
      </trkpt>
      <trkpt lat="45.97408" lon="6.42669">
        <ele>1989.8</ele>
        <time>2019-06-18T11:19:33Z</time>
      </trkpt>
      <trkpt lat="45.97411" lon="6.42664">
        <ele>1990.1</ele>
        <time>2019-06-18T11:19:38Z</time>
      </trkpt>
      <trkpt lat="45.97408" lon="6.42666">
        <ele>1987</ele>
        <time>2019-06-18T11:21:43Z</time>
      </trkpt>
      <trkpt lat="45.97407" lon="6.42678">
        <ele>1987.6</ele>
        <time>2019-06-18T11:22:08Z</time>
      </trkpt>
      <trkpt lat="45.97406" lon="6.42687">
        <ele>1987.7</ele>
        <time>2019-06-18T11:22:11Z</time>
      </trkpt>
      <trkpt lat="45.97404" lon="6.42693">
        <ele>1987.7</ele>
        <time>2019-06-18T11:22:15Z</time>
      </trkpt>
      <trkpt lat="45.97406" lon="6.42699">
        <ele>1986</ele>
        <time>2019-06-18T11:22:34Z</time>
      </trkpt>
      <trkpt lat="45.9741" lon="6.42701">
        <ele>1985.4</ele>
        <time>2019-06-18T11:22:51Z</time>
      </trkpt>
      <trkpt lat="45.97413" lon="6.42707">
        <ele>1983.9</ele>
        <time>2019-06-18T11:23:02Z</time>
      </trkpt>
      <trkpt lat="45.97418" lon="6.42709">
        <ele>1982.9</ele>
        <time>2019-06-18T11:23:08Z</time>
      </trkpt>
      <trkpt lat="45.97422" lon="6.42712">
        <ele>1982</ele>
        <time>2019-06-18T11:23:20Z</time>
      </trkpt>
      <trkpt lat="45.97426" lon="6.42716">
        <ele>1980.7</ele>
        <time>2019-06-18T11:23:34Z</time>
      </trkpt>
      <trkpt lat="45.9743" lon="6.42718">
        <ele>1979.6</ele>
        <time>2019-06-18T11:23:46Z</time>
      </trkpt>
      <trkpt lat="45.97435" lon="6.4272">
        <ele>1977.7</ele>
        <time>2019-06-18T11:24:04Z</time>
      </trkpt>
      <trkpt lat="45.97438" lon="6.42725">
        <ele>1974.9</ele>
        <time>2019-06-18T11:24:45Z</time>
      </trkpt>
      <trkpt lat="45.97442" lon="6.42729">
        <ele>1969.4</ele>
        <time>2019-06-18T11:25:22Z</time>
      </trkpt>
      <trkpt lat="45.97446" lon="6.42733">
        <ele>1968.5</ele>
        <time>2019-06-18T11:25:41Z</time>
      </trkpt>
      <trkpt lat="45.9745" lon="6.42738">
        <ele>1966.5</ele>
        <time>2019-06-18T11:25:59Z</time>
      </trkpt>
      <trkpt lat="45.97453" lon="6.42743">
        <ele>1965.4</ele>
        <time>2019-06-18T11:26:06Z</time>
      </trkpt>
      <trkpt lat="45.97456" lon="6.42749">
        <ele>1964.9</ele>
        <time>2019-06-18T11:26:09Z</time>
      </trkpt>
      <trkpt lat="45.97459" lon="6.42756">
        <ele>1964.1</ele>
        <time>2019-06-18T11:26:13Z</time>
      </trkpt>
      <trkpt lat="45.97461" lon="6.42762">
        <ele>1962.3</ele>
        <time>2019-06-18T11:26:20Z</time>
      </trkpt>
      <trkpt lat="45.97461" lon="6.42768">
        <ele>1960.1</ele>
        <time>2019-06-18T11:26:29Z</time>
      </trkpt>
      <trkpt lat="45.9746" lon="6.42774">
        <ele>1958</ele>
        <time>2019-06-18T11:26:38Z</time>
      </trkpt>
      <trkpt lat="45.97459" lon="6.42781">
        <ele>1955.9</ele>
        <time>2019-06-18T11:26:48Z</time>
      </trkpt>
      <trkpt lat="45.97457" lon="6.42786">
        <ele>1954.3</ele>
        <time>2019-06-18T11:26:55Z</time>
      </trkpt>
      <trkpt lat="45.97455" lon="6.42792">
        <ele>1953.5</ele>
        <time>2019-06-18T11:27:01Z</time>
      </trkpt>
      <trkpt lat="45.97452" lon="6.42798">
        <ele>1952</ele>
        <time>2019-06-18T11:27:08Z</time>
      </trkpt>
      <trkpt lat="45.97452" lon="6.42805">
        <ele>1950.1</ele>
        <time>2019-06-18T11:27:18Z</time>
      </trkpt>
      <trkpt lat="45.97453" lon="6.42813">
        <ele>1949.3</ele>
        <time>2019-06-18T11:27:26Z</time>
      </trkpt>
      <trkpt lat="45.97454" lon="6.42819">
        <ele>1947.9</ele>
        <time>2019-06-18T11:27:36Z</time>
      </trkpt>
      <trkpt lat="45.97459" lon="6.42823">
        <ele>1946.6</ele>
        <time>2019-06-18T11:27:44Z</time>
      </trkpt>
      <trkpt lat="45.97459" lon="6.42829">
        <ele>1944.4</ele>
        <time>2019-06-18T11:28:07Z</time>
      </trkpt>
      <trkpt lat="45.97463" lon="6.42833">
        <ele>1941.6</ele>
        <time>2019-06-18T11:28:27Z</time>
      </trkpt>
      <trkpt lat="45.97465" lon="6.42839">
        <ele>1940</ele>
        <time>2019-06-18T11:28:38Z</time>
      </trkpt>
      <trkpt lat="45.97466" lon="6.42846">
        <ele>1938.9</ele>
        <time>2019-06-18T11:28:47Z</time>
      </trkpt>
      <trkpt lat="45.97465" lon="6.42853">
        <ele>1935.9</ele>
        <time>2019-06-18T11:29:02Z</time>
      </trkpt>
      <trkpt lat="45.97464" lon="6.42859">
        <ele>1932.5</ele>
        <time>2019-06-18T11:29:17Z</time>
      </trkpt>
      <trkpt lat="45.9746" lon="6.42861">
        <ele>1930.8</ele>
        <time>2019-06-18T11:29:25Z</time>
      </trkpt>
      <trkpt lat="45.97461" lon="6.42868">
        <ele>1928.6</ele>
        <time>2019-06-18T11:29:37Z</time>
      </trkpt>
      <trkpt lat="45.9746" lon="6.42875">
        <ele>1927.5</ele>
        <time>2019-06-18T11:29:44Z</time>
      </trkpt>
      <trkpt lat="45.97456" lon="6.42878">
        <ele>1923.6</ele>
        <time>2019-06-18T11:30:07Z</time>
      </trkpt>
      <trkpt lat="45.97457" lon="6.42885">
        <ele>1922.1</ele>
        <time>2019-06-18T11:30:17Z</time>
      </trkpt>
      <trkpt lat="45.97461" lon="6.42887">
        <ele>1920.9</ele>
        <time>2019-06-18T11:30:26Z</time>
      </trkpt>
      <trkpt lat="45.97466" lon="6.42885">
        <ele>1917.9</ele>
        <time>2019-06-18T11:31:00Z</time>
      </trkpt>
      <trkpt lat="45.9747" lon="6.42887">
        <ele>1916.7</ele>
        <time>2019-06-18T11:31:20Z</time>
      </trkpt>
      <trkpt lat="45.97475" lon="6.42884">
        <ele>1916.6</ele>
        <time>2019-06-18T11:31:26Z</time>
      </trkpt>
      <trkpt lat="45.9748" lon="6.42887">
        <ele>1916.7</ele>
        <time>2019-06-18T11:31:35Z</time>
      </trkpt>
      <trkpt lat="45.97484" lon="6.42886">
        <ele>1916.7</ele>
        <time>2019-06-18T11:31:43Z</time>
      </trkpt>
      <trkpt lat="45.97489" lon="6.42883">
        <ele>1916.4</ele>
        <time>2019-06-18T11:31:51Z</time>
      </trkpt>
      <trkpt lat="45.97491" lon="6.42877">
        <ele>1915.4</ele>
        <time>2019-06-18T11:31:59Z</time>
      </trkpt>
      <trkpt lat="45.97495" lon="6.42873">
        <ele>1914.1</ele>
        <time>2019-06-18T11:32:10Z</time>
      </trkpt>
      <trkpt lat="45.97498" lon="6.42877">
        <ele>1913.6</ele>
        <time>2019-06-18T11:32:18Z</time>
      </trkpt>
      <trkpt lat="45.97503" lon="6.42879">
        <ele>1913.4</ele>
        <time>2019-06-18T11:32:23Z</time>
      </trkpt>
      <trkpt lat="45.97507" lon="6.42878">
        <ele>1913</ele>
        <time>2019-06-18T11:32:30Z</time>
      </trkpt>
      <trkpt lat="45.97512" lon="6.42878">
        <ele>1912.5</ele>
        <time>2019-06-18T11:32:37Z</time>
      </trkpt>
      <trkpt lat="45.97517" lon="6.42881">
        <ele>1912.2</ele>
        <time>2019-06-18T11:32:45Z</time>
      </trkpt>
      <trkpt lat="45.9752" lon="6.42886">
        <ele>1911.4</ele>
        <time>2019-06-18T11:32:55Z</time>
      </trkpt>
      <trkpt lat="45.97525" lon="6.42889">
        <ele>1911</ele>
        <time>2019-06-18T11:33:01Z</time>
      </trkpt>
      <trkpt lat="45.9753" lon="6.42891">
        <ele>1911.5</ele>
        <time>2019-06-18T11:33:06Z</time>
      </trkpt>
      <trkpt lat="45.97534" lon="6.42889">
        <ele>1912</ele>
        <time>2019-06-18T11:33:12Z</time>
      </trkpt>
      <trkpt lat="45.97538" lon="6.42884">
        <ele>1912.5</ele>
        <time>2019-06-18T11:33:20Z</time>
      </trkpt>
      <trkpt lat="45.97543" lon="6.42883">
        <ele>1912.7</ele>
        <time>2019-06-18T11:33:29Z</time>
      </trkpt>
      <trkpt lat="45.97548" lon="6.42883">
        <ele>1912.7</ele>
        <time>2019-06-18T11:33:35Z</time>
      </trkpt>
      <trkpt lat="45.97552" lon="6.4288">
        <ele>1912.9</ele>
        <time>2019-06-18T11:33:44Z</time>
      </trkpt>
      <trkpt lat="45.97557" lon="6.42877">
        <ele>1913.1</ele>
        <time>2019-06-18T11:33:54Z</time>
      </trkpt>
      <trkpt lat="45.9756" lon="6.42872">
        <ele>1913.2</ele>
        <time>2019-06-18T11:34:02Z</time>
      </trkpt>
      <trkpt lat="45.97565" lon="6.4287">
        <ele>1912.5</ele>
        <time>2019-06-18T11:34:11Z</time>
      </trkpt>
      <trkpt lat="45.9757" lon="6.42868">
        <ele>1912.3</ele>
        <time>2019-06-18T11:34:19Z</time>
      </trkpt>
      <trkpt lat="45.97574" lon="6.42866">
        <ele>1912.3</ele>
        <time>2019-06-18T11:34:28Z</time>
      </trkpt>
      <trkpt lat="45.97577" lon="6.42872">
        <ele>1912.4</ele>
        <time>2019-06-18T11:34:40Z</time>
      </trkpt>
      <trkpt lat="45.97581" lon="6.42877">
        <ele>1912.6</ele>
        <time>2019-06-18T11:34:45Z</time>
      </trkpt>
      <trkpt lat="45.97586" lon="6.42879">
        <ele>1913.6</ele>
        <time>2019-06-18T11:34:54Z</time>
      </trkpt>
      <trkpt lat="45.9759" lon="6.42878">
        <ele>1915.6</ele>
        <time>2019-06-18T11:35:09Z</time>
      </trkpt>
      <trkpt lat="45.97595" lon="6.42881">
        <ele>1916.8</ele>
        <time>2019-06-18T11:35:23Z</time>
      </trkpt>
      <trkpt lat="45.97599" lon="6.42883">
        <ele>1916.9</ele>
        <time>2019-06-18T11:35:46Z</time>
      </trkpt>
      <trkpt lat="45.97603" lon="6.42886">
        <ele>1917.2</ele>
        <time>2019-06-18T11:36:06Z</time>
      </trkpt>
      <trkpt lat="45.97606" lon="6.42892">
        <ele>1915.6</ele>
        <time>2019-06-18T11:36:38Z</time>
      </trkpt>
      <trkpt lat="45.97609" lon="6.42897">
        <ele>1915.6</ele>
        <time>2019-06-18T11:36:46Z</time>
      </trkpt>
      <trkpt lat="45.97613" lon="6.42899">
        <ele>1915.7</ele>
        <time>2019-06-18T11:36:54Z</time>
      </trkpt>
      <trkpt lat="45.97618" lon="6.42902">
        <ele>1915.9</ele>
        <time>2019-06-18T11:37:02Z</time>
      </trkpt>
      <trkpt lat="45.9762" lon="6.42908">
        <ele>1915.9</ele>
        <time>2019-06-18T11:37:07Z</time>
      </trkpt>
      <trkpt lat="45.97622" lon="6.42914">
        <ele>1915.7</ele>
        <time>2019-06-18T11:37:16Z</time>
      </trkpt>
      <trkpt lat="45.97624" lon="6.42921">
        <ele>1915</ele>
        <time>2019-06-18T11:37:28Z</time>
      </trkpt>
      <trkpt lat="45.97627" lon="6.42925">
        <ele>1913.4</ele>
        <time>2019-06-18T11:37:40Z</time>
      </trkpt>
      <trkpt lat="45.9763" lon="6.42931">
        <ele>1912.4</ele>
        <time>2019-06-18T11:37:47Z</time>
      </trkpt>
      <trkpt lat="45.97631" lon="6.42937">
        <ele>1911.5</ele>
        <time>2019-06-18T11:37:59Z</time>
      </trkpt>
      <trkpt lat="45.97632" lon="6.42944">
        <ele>1911.3</ele>
        <time>2019-06-18T11:38:15Z</time>
      </trkpt>
      <trkpt lat="45.97636" lon="6.42948">
        <ele>1911.1</ele>
        <time>2019-06-18T11:38:27Z</time>
      </trkpt>
      <trkpt lat="45.9764" lon="6.42954">
        <ele>1910.6</ele>
        <time>2019-06-18T11:38:35Z</time>
      </trkpt>
      <trkpt lat="45.97643" lon="6.42958">
        <ele>1910.2</ele>
        <time>2019-06-18T11:38:46Z</time>
      </trkpt>
      <trkpt lat="45.97646" lon="6.42963">
        <ele>1909.9</ele>
        <time>2019-06-18T11:38:54Z</time>
      </trkpt>
      <trkpt lat="45.9765" lon="6.42968">
        <ele>1908.9</ele>
        <time>2019-06-18T11:39:03Z</time>
      </trkpt>
      <trkpt lat="45.97654" lon="6.42971">
        <ele>1908.2</ele>
        <time>2019-06-18T11:39:12Z</time>
      </trkpt>
      <trkpt lat="45.97654" lon="6.42978">
        <ele>1904.9</ele>
        <time>2019-06-18T11:39:28Z</time>
      </trkpt>
      <trkpt lat="45.97655" lon="6.42984">
        <ele>1903.4</ele>
        <time>2019-06-18T11:39:34Z</time>
      </trkpt>
      <trkpt lat="45.97656" lon="6.42991">
        <ele>1901.6</ele>
        <time>2019-06-18T11:39:41Z</time>
      </trkpt>
      <trkpt lat="45.97661" lon="6.42993">
        <ele>1900</ele>
        <time>2019-06-18T11:39:52Z</time>
      </trkpt>
      <trkpt lat="45.97666" lon="6.42992">
        <ele>1898.5</ele>
        <time>2019-06-18T11:40:03Z</time>
      </trkpt>
      <trkpt lat="45.97669" lon="6.42996">
        <ele>1897.6</ele>
        <time>2019-06-18T11:40:12Z</time>
      </trkpt>
      <trkpt lat="45.97669" lon="6.43003">
        <ele>1896.9</ele>
        <time>2019-06-18T11:40:20Z</time>
      </trkpt>
      <trkpt lat="45.97667" lon="6.43009">
        <ele>1895.2</ele>
        <time>2019-06-18T11:40:33Z</time>
      </trkpt>
      <trkpt lat="45.97666" lon="6.43016">
        <ele>1893.5</ele>
        <time>2019-06-18T11:40:44Z</time>
      </trkpt>
      <trkpt lat="45.97667" lon="6.43023">
        <ele>1893.1</ele>
        <time>2019-06-18T11:40:51Z</time>
      </trkpt>
      <trkpt lat="45.97668" lon="6.4303">
        <ele>1893</ele>
        <time>2019-06-18T11:40:55Z</time>
      </trkpt>
      <trkpt lat="45.97668" lon="6.43036">
        <ele>1892.8</ele>
        <time>2019-06-18T11:41:03Z</time>
      </trkpt>
      <trkpt lat="45.97666" lon="6.43042">
        <ele>1893.2</ele>
        <time>2019-06-18T11:41:44Z</time>
      </trkpt>
      <trkpt lat="45.97666" lon="6.43048">
        <ele>1891.9</ele>
        <time>2019-06-18T11:41:54Z</time>
      </trkpt>
      <trkpt lat="45.97667" lon="6.43055">
        <ele>1889.7</ele>
        <time>2019-06-18T11:42:05Z</time>
      </trkpt>
      <trkpt lat="45.97666" lon="6.43062">
        <ele>1885.6</ele>
        <time>2019-06-18T11:42:23Z</time>
      </trkpt>
      <trkpt lat="45.97667" lon="6.43068">
        <ele>1883.3</ele>
        <time>2019-06-18T11:42:36Z</time>
      </trkpt>
      <trkpt lat="45.97667" lon="6.43076">
        <ele>1882</ele>
        <time>2019-06-18T11:42:42Z</time>
      </trkpt>
      <trkpt lat="45.97669" lon="6.43082">
        <ele>1880.3</ele>
        <time>2019-06-18T11:42:51Z</time>
      </trkpt>
      <trkpt lat="45.9767" lon="6.43088">
        <ele>1879.4</ele>
        <time>2019-06-18T11:43:03Z</time>
      </trkpt>
      <trkpt lat="45.97673" lon="6.43094">
        <ele>1878.5</ele>
        <time>2019-06-18T11:43:14Z</time>
      </trkpt>
      <trkpt lat="45.97676" lon="6.431">
        <ele>1877.7</ele>
        <time>2019-06-18T11:43:22Z</time>
      </trkpt>
      <trkpt lat="45.9768" lon="6.43103">
        <ele>1877.1</ele>
        <time>2019-06-18T11:43:31Z</time>
      </trkpt>
      <trkpt lat="45.97685" lon="6.43105">
        <ele>1877.2</ele>
        <time>2019-06-18T11:43:38Z</time>
      </trkpt>
      <trkpt lat="45.97689" lon="6.43106">
        <ele>1877.2</ele>
        <time>2019-06-18T11:43:44Z</time>
      </trkpt>
      <trkpt lat="45.97694" lon="6.43107">
        <ele>1876.9</ele>
        <time>2019-06-18T11:43:50Z</time>
      </trkpt>
      <trkpt lat="45.97699" lon="6.43108">
        <ele>1876.2</ele>
        <time>2019-06-18T11:43:58Z</time>
      </trkpt>
      <trkpt lat="45.97702" lon="6.43113">
        <ele>1875.1</ele>
        <time>2019-06-18T11:44:11Z</time>
      </trkpt>
      <trkpt lat="45.97703" lon="6.4312">
        <ele>1875.4</ele>
        <time>2019-06-18T11:44:21Z</time>
      </trkpt>
      <trkpt lat="45.97707" lon="6.43125">
        <ele>1876</ele>
        <time>2019-06-18T11:44:30Z</time>
      </trkpt>
      <trkpt lat="45.9771" lon="6.4313">
        <ele>1876.4</ele>
        <time>2019-06-18T11:44:40Z</time>
      </trkpt>
      <trkpt lat="45.97714" lon="6.43135">
        <ele>1876.4</ele>
        <time>2019-06-18T11:44:47Z</time>
      </trkpt>
      <trkpt lat="45.97719" lon="6.43135">
        <ele>1876.5</ele>
        <time>2019-06-18T11:44:55Z</time>
      </trkpt>
      <trkpt lat="45.97724" lon="6.43137">
        <ele>1876.7</ele>
        <time>2019-06-18T11:45:04Z</time>
      </trkpt>
      <trkpt lat="45.97729" lon="6.43137">
        <ele>1876.9</ele>
        <time>2019-06-18T11:45:10Z</time>
      </trkpt>
      <trkpt lat="45.97733" lon="6.43138">
        <ele>1877</ele>
        <time>2019-06-18T11:45:19Z</time>
      </trkpt>
      <trkpt lat="45.97737" lon="6.4314">
        <ele>1877.3</ele>
        <time>2019-06-18T11:45:33Z</time>
      </trkpt>
      <trkpt lat="45.97742" lon="6.4314">
        <ele>1876.9</ele>
        <time>2019-06-18T11:45:42Z</time>
      </trkpt>
      <trkpt lat="45.97747" lon="6.43142">
        <ele>1876.5</ele>
        <time>2019-06-18T11:45:49Z</time>
      </trkpt>
      <trkpt lat="45.97751" lon="6.43145">
        <ele>1876.5</ele>
        <time>2019-06-18T11:45:54Z</time>
      </trkpt>
      <trkpt lat="45.97755" lon="6.43149">
        <ele>1876.9</ele>
        <time>2019-06-18T11:46:03Z</time>
      </trkpt>
      <trkpt lat="45.97759" lon="6.43151">
        <ele>1877.8</ele>
        <time>2019-06-18T11:46:11Z</time>
      </trkpt>
      <trkpt lat="45.97764" lon="6.43151">
        <ele>1878.7</ele>
        <time>2019-06-18T11:46:18Z</time>
      </trkpt>
      <trkpt lat="45.97769" lon="6.4315">
        <ele>1879.5</ele>
        <time>2019-06-18T11:46:24Z</time>
      </trkpt>
      <trkpt lat="45.97774" lon="6.43149">
        <ele>1879.6</ele>
        <time>2019-06-18T11:46:30Z</time>
      </trkpt>
      <trkpt lat="45.97779" lon="6.43151">
        <ele>1879.5</ele>
        <time>2019-06-18T11:46:37Z</time>
      </trkpt>
      <trkpt lat="45.97784" lon="6.4315">
        <ele>1878.9</ele>
        <time>2019-06-18T11:47:01Z</time>
      </trkpt>
      <trkpt lat="45.9778" lon="6.43152">
        <ele>1881.3</ele>
        <time>2019-06-18T11:48:15Z</time>
      </trkpt>
      <trkpt lat="45.97783" lon="6.43156">
        <ele>1882.7</ele>
        <time>2019-06-18T11:48:21Z</time>
      </trkpt>
      <trkpt lat="45.97789" lon="6.43157">
        <ele>1883</ele>
        <time>2019-06-18T11:48:24Z</time>
      </trkpt>
      <trkpt lat="45.97795" lon="6.43157">
        <ele>1883.2</ele>
        <time>2019-06-18T11:48:27Z</time>
      </trkpt>
      <trkpt lat="45.978" lon="6.43155">
        <ele>1883.3</ele>
        <time>2019-06-18T11:48:30Z</time>
      </trkpt>
      <trkpt lat="45.97805" lon="6.43155">
        <ele>1883.2</ele>
        <time>2019-06-18T11:48:34Z</time>
      </trkpt>
      <trkpt lat="45.9781" lon="6.43155">
        <ele>1883.1</ele>
        <time>2019-06-18T11:48:38Z</time>
      </trkpt>
      <trkpt lat="45.97815" lon="6.43156">
        <ele>1882.4</ele>
        <time>2019-06-18T11:48:43Z</time>
      </trkpt>
      <trkpt lat="45.97819" lon="6.43162">
        <ele>1880.8</ele>
        <time>2019-06-18T11:48:51Z</time>
      </trkpt>
      <trkpt lat="45.97821" lon="6.43167">
        <ele>1879.6</ele>
        <time>2019-06-18T11:48:57Z</time>
      </trkpt>
      <trkpt lat="45.97825" lon="6.43173">
        <ele>1878.8</ele>
        <time>2019-06-18T11:49:02Z</time>
      </trkpt>
      <trkpt lat="45.97829" lon="6.43176">
        <ele>1878.2</ele>
        <time>2019-06-18T11:49:10Z</time>
      </trkpt>
      <trkpt lat="45.97834" lon="6.43177">
        <ele>1878.3</ele>
        <time>2019-06-18T11:49:26Z</time>
      </trkpt>
      <trkpt lat="45.97838" lon="6.4318">
        <ele>1878.4</ele>
        <time>2019-06-18T11:49:36Z</time>
      </trkpt>
      <trkpt lat="45.97841" lon="6.43186">
        <ele>1877.4</ele>
        <time>2019-06-18T11:49:47Z</time>
      </trkpt>
      <trkpt lat="45.97837" lon="6.43189">
        <ele>1876.4</ele>
        <time>2019-06-18T11:49:57Z</time>
      </trkpt>
      <trkpt lat="45.97833" lon="6.43193">
        <ele>1874.1</ele>
        <time>2019-06-18T11:50:11Z</time>
      </trkpt>
      <trkpt lat="45.97832" lon="6.432">
        <ele>1871.9</ele>
        <time>2019-06-18T11:50:23Z</time>
      </trkpt>
      <trkpt lat="45.97836" lon="6.43204">
        <ele>1870.6</ele>
        <time>2019-06-18T11:50:29Z</time>
      </trkpt>
      <trkpt lat="45.9784" lon="6.43208">
        <ele>1869.5</ele>
        <time>2019-06-18T11:50:34Z</time>
      </trkpt>
      <trkpt lat="45.97843" lon="6.43213">
        <ele>1867.7</ele>
        <time>2019-06-18T11:50:44Z</time>
      </trkpt>
      <trkpt lat="45.97847" lon="6.43217">
        <ele>1867.1</ele>
        <time>2019-06-18T11:50:49Z</time>
      </trkpt>
      <trkpt lat="45.97851" lon="6.43222">
        <ele>1866.5</ele>
        <time>2019-06-18T11:50:54Z</time>
      </trkpt>
      <trkpt lat="45.97855" lon="6.43226">
        <ele>1866.1</ele>
        <time>2019-06-18T11:50:58Z</time>
      </trkpt>
      <trkpt lat="45.97859" lon="6.4323">
        <ele>1865.4</ele>
        <time>2019-06-18T11:51:03Z</time>
      </trkpt>
      <trkpt lat="45.97862" lon="6.43235">
        <ele>1864.8</ele>
        <time>2019-06-18T11:51:07Z</time>
      </trkpt>
      <trkpt lat="45.97864" lon="6.43242">
        <ele>1863.9</ele>
        <time>2019-06-18T11:51:12Z</time>
      </trkpt>
      <trkpt lat="45.97866" lon="6.43249">
        <ele>1862.8</ele>
        <time>2019-06-18T11:51:18Z</time>
      </trkpt>
      <trkpt lat="45.97868" lon="6.43255">
        <ele>1861.6</ele>
        <time>2019-06-18T11:51:23Z</time>
      </trkpt>
      <trkpt lat="45.9787" lon="6.43261">
        <ele>1859.9</ele>
        <time>2019-06-18T11:51:30Z</time>
      </trkpt>
      <trkpt lat="45.97874" lon="6.43266">
        <ele>1856.4</ele>
        <time>2019-06-18T11:51:43Z</time>
      </trkpt>
      <trkpt lat="45.97879" lon="6.43277">
        <ele>1852.1</ele>
        <time>2019-06-18T11:52:28Z</time>
      </trkpt>
      <trkpt lat="45.9788" lon="6.43293">
        <ele>1846.9</ele>
        <time>2019-06-18T11:53:01Z</time>
      </trkpt>
      <trkpt lat="45.97879" lon="6.43301">
        <ele>1845.9</ele>
        <time>2019-06-18T11:53:08Z</time>
      </trkpt>
      <trkpt lat="45.97879" lon="6.43308">
        <ele>1845.4</ele>
        <time>2019-06-18T11:53:12Z</time>
      </trkpt>
      <trkpt lat="45.97878" lon="6.43316">
        <ele>1844.7</ele>
        <time>2019-06-18T11:53:17Z</time>
      </trkpt>
      <trkpt lat="45.9788" lon="6.43323">
        <ele>1844.1</ele>
        <time>2019-06-18T11:53:22Z</time>
      </trkpt>
      <trkpt lat="45.97882" lon="6.43329">
        <ele>1842.8</ele>
        <time>2019-06-18T11:53:31Z</time>
      </trkpt>
      <trkpt lat="45.97884" lon="6.43335">
        <ele>1842.2</ele>
        <time>2019-06-18T11:53:36Z</time>
      </trkpt>
      <trkpt lat="45.97885" lon="6.43342">
        <ele>1841.6</ele>
        <time>2019-06-18T11:53:41Z</time>
      </trkpt>
      <trkpt lat="45.97888" lon="6.43349">
        <ele>1841.1</ele>
        <time>2019-06-18T11:53:46Z</time>
      </trkpt>
      <trkpt lat="45.97889" lon="6.43355">
        <ele>1840.8</ele>
        <time>2019-06-18T11:53:49Z</time>
      </trkpt>
      <trkpt lat="45.97889" lon="6.43362">
        <ele>1840.7</ele>
        <time>2019-06-18T11:53:55Z</time>
      </trkpt>
      <trkpt lat="45.97891" lon="6.43369">
        <ele>1840.6</ele>
        <time>2019-06-18T11:54:02Z</time>
      </trkpt>
      <trkpt lat="45.97892" lon="6.43375">
        <ele>1840.5</ele>
        <time>2019-06-18T11:54:10Z</time>
      </trkpt>
      <trkpt lat="45.97894" lon="6.43381">
        <ele>1839.2</ele>
        <time>2019-06-18T11:54:21Z</time>
      </trkpt>
      <trkpt lat="45.97894" lon="6.43389">
        <ele>1837.9</ele>
        <time>2019-06-18T11:54:29Z</time>
      </trkpt>
      <trkpt lat="45.97896" lon="6.43396">
        <ele>1837</ele>
        <time>2019-06-18T11:54:34Z</time>
      </trkpt>
      <trkpt lat="45.97897" lon="6.43403">
        <ele>1836.2</ele>
        <time>2019-06-18T11:54:39Z</time>
      </trkpt>
      <trkpt lat="45.979" lon="6.43408">
        <ele>1833.1</ele>
        <time>2019-06-18T11:55:01Z</time>
      </trkpt>
      <trkpt lat="45.979" lon="6.43415">
        <ele>1830.4</ele>
        <time>2019-06-18T11:55:34Z</time>
      </trkpt>
      <trkpt lat="45.97901" lon="6.43423">
        <ele>1829.8</ele>
        <time>2019-06-18T11:55:40Z</time>
      </trkpt>
      <trkpt lat="45.97903" lon="6.43429">
        <ele>1829.2</ele>
        <time>2019-06-18T11:55:44Z</time>
      </trkpt>
      <trkpt lat="45.97906" lon="6.43435">
        <ele>1828.5</ele>
        <time>2019-06-18T11:55:48Z</time>
      </trkpt>
      <trkpt lat="45.97908" lon="6.43441">
        <ele>1827.6</ele>
        <time>2019-06-18T11:55:53Z</time>
      </trkpt>
      <trkpt lat="45.9791" lon="6.43448">
        <ele>1826.8</ele>
        <time>2019-06-18T11:55:58Z</time>
      </trkpt>
      <trkpt lat="45.97912" lon="6.43454">
        <ele>1825.9</ele>
        <time>2019-06-18T11:56:04Z</time>
      </trkpt>
      <trkpt lat="45.97913" lon="6.43461">
        <ele>1824.8</ele>
        <time>2019-06-18T11:56:12Z</time>
      </trkpt>
      <trkpt lat="45.97914" lon="6.43467">
        <ele>1824</ele>
        <time>2019-06-18T11:56:17Z</time>
      </trkpt>
      <trkpt lat="45.97915" lon="6.43474">
        <ele>1822.8</ele>
        <time>2019-06-18T11:56:24Z</time>
      </trkpt>
      <trkpt lat="45.97918" lon="6.43481">
        <ele>1821.9</ele>
        <time>2019-06-18T11:56:30Z</time>
      </trkpt>
      <trkpt lat="45.9792" lon="6.43486">
        <ele>1820.5</ele>
        <time>2019-06-18T11:56:43Z</time>
      </trkpt>
      <trkpt lat="45.97923" lon="6.43493">
        <ele>1819.4</ele>
        <time>2019-06-18T11:56:50Z</time>
      </trkpt>
      <trkpt lat="45.97926" lon="6.43499">
        <ele>1818.5</ele>
        <time>2019-06-18T11:56:55Z</time>
      </trkpt>
      <trkpt lat="45.97929" lon="6.43504">
        <ele>1817.8</ele>
        <time>2019-06-18T11:56:59Z</time>
      </trkpt>
      <trkpt lat="45.97931" lon="6.4351">
        <ele>1816.8</ele>
        <time>2019-06-18T11:57:04Z</time>
      </trkpt>
      <trkpt lat="45.97934" lon="6.43515">
        <ele>1815.8</ele>
        <time>2019-06-18T11:57:09Z</time>
      </trkpt>
      <trkpt lat="45.97938" lon="6.43521">
        <ele>1814</ele>
        <time>2019-06-18T11:57:18Z</time>
      </trkpt>
      <trkpt lat="45.9794" lon="6.43527">
        <ele>1812.9</ele>
        <time>2019-06-18T11:57:24Z</time>
      </trkpt>
      <trkpt lat="45.97942" lon="6.43534">
        <ele>1812.1</ele>
        <time>2019-06-18T11:57:28Z</time>
      </trkpt>
      <trkpt lat="45.97944" lon="6.4354">
        <ele>1811.1</ele>
        <time>2019-06-18T11:57:34Z</time>
      </trkpt>
      <trkpt lat="45.9794" lon="6.43544">
        <ele>1809.3</ele>
        <time>2019-06-18T11:57:42Z</time>
      </trkpt>
      <trkpt lat="45.97935" lon="6.43544">
        <ele>1808.2</ele>
        <time>2019-06-18T11:57:48Z</time>
      </trkpt>
      <trkpt lat="45.9793" lon="6.43546">
        <ele>1807</ele>
        <time>2019-06-18T11:57:55Z</time>
      </trkpt>
      <trkpt lat="45.97925" lon="6.43546">
        <ele>1805.6</ele>
        <time>2019-06-18T11:58:01Z</time>
      </trkpt>
      <trkpt lat="45.97925" lon="6.43552">
        <ele>1801.6</ele>
        <time>2019-06-18T11:58:14Z</time>
      </trkpt>
      <trkpt lat="45.97928" lon="6.43558">
        <ele>1799.2</ele>
        <time>2019-06-18T11:58:23Z</time>
      </trkpt>
      <trkpt lat="45.97932" lon="6.43562">
        <ele>1797.9</ele>
        <time>2019-06-18T11:58:29Z</time>
      </trkpt>
      <trkpt lat="45.97935" lon="6.43567">
        <ele>1796.5</ele>
        <time>2019-06-18T11:58:35Z</time>
      </trkpt>
      <trkpt lat="45.97938" lon="6.4357">
        <ele>1795.2</ele>
        <time>2019-06-18T11:58:42Z</time>
      </trkpt>
      <trkpt lat="45.97942" lon="6.43574">
        <ele>1794.5</ele>
        <time>2019-06-18T11:58:46Z</time>
      </trkpt>
      <trkpt lat="45.97946" lon="6.43577">
        <ele>1794</ele>
        <time>2019-06-18T11:58:51Z</time>
      </trkpt>
      <trkpt lat="45.97951" lon="6.4358">
        <ele>1792.7</ele>
        <time>2019-06-18T11:59:01Z</time>
      </trkpt>
      <trkpt lat="45.97955" lon="6.43583">
        <ele>1792.1</ele>
        <time>2019-06-18T11:59:09Z</time>
      </trkpt>
      <trkpt lat="45.97958" lon="6.43589">
        <ele>1791.2</ele>
        <time>2019-06-18T11:59:15Z</time>
      </trkpt>
      <trkpt lat="45.97961" lon="6.43594">
        <ele>1789.4</ele>
        <time>2019-06-18T11:59:23Z</time>
      </trkpt>
      <trkpt lat="45.97964" lon="6.43599">
        <ele>1787.7</ele>
        <time>2019-06-18T11:59:30Z</time>
      </trkpt>
      <trkpt lat="45.97968" lon="6.43605">
        <ele>1786.9</ele>
        <time>2019-06-18T11:59:36Z</time>
      </trkpt>
      <trkpt lat="45.9797" lon="6.43611">
        <ele>1786</ele>
        <time>2019-06-18T11:59:42Z</time>
      </trkpt>
      <trkpt lat="45.97974" lon="6.43615">
        <ele>1785.1</ele>
        <time>2019-06-18T11:59:48Z</time>
      </trkpt>
      <trkpt lat="45.97978" lon="6.43619">
        <ele>1784.2</ele>
        <time>2019-06-18T11:59:53Z</time>
      </trkpt>
      <trkpt lat="45.97982" lon="6.43623">
        <ele>1783.2</ele>
        <time>2019-06-18T11:59:58Z</time>
      </trkpt>
      <trkpt lat="45.97985" lon="6.43629">
        <ele>1781.4</ele>
        <time>2019-06-18T12:00:05Z</time>
      </trkpt>
      <trkpt lat="45.97988" lon="6.43634">
        <ele>1779.8</ele>
        <time>2019-06-18T12:00:11Z</time>
      </trkpt>
      <trkpt lat="45.97983" lon="6.43635">
        <ele>1776.4</ele>
        <time>2019-06-18T12:00:23Z</time>
      </trkpt>
      <trkpt lat="45.97978" lon="6.43631">
        <ele>1775</ele>
        <time>2019-06-18T12:00:29Z</time>
      </trkpt>
      <trkpt lat="45.97973" lon="6.43629">
        <ele>1774.3</ele>
        <time>2019-06-18T12:00:33Z</time>
      </trkpt>
      <trkpt lat="45.97968" lon="6.43628">
        <ele>1773.3</ele>
        <time>2019-06-18T12:00:39Z</time>
      </trkpt>
      <trkpt lat="45.97964" lon="6.43627">
        <ele>1772.7</ele>
        <time>2019-06-18T12:00:44Z</time>
      </trkpt>
      <trkpt lat="45.97958" lon="6.43627">
        <ele>1772.4</ele>
        <time>2019-06-18T12:00:48Z</time>
      </trkpt>
      <trkpt lat="45.97954" lon="6.4363">
        <ele>1771.8</ele>
        <time>2019-06-18T12:00:56Z</time>
      </trkpt>
      <trkpt lat="45.97952" lon="6.43636">
        <ele>1771</ele>
        <time>2019-06-18T12:01:02Z</time>
      </trkpt>
      <trkpt lat="45.97952" lon="6.43643">
        <ele>1770</ele>
        <time>2019-06-18T12:01:08Z</time>
      </trkpt>
      <trkpt lat="45.97951" lon="6.4365">
        <ele>1769.1</ele>
        <time>2019-06-18T12:01:16Z</time>
      </trkpt>
      <trkpt lat="45.97951" lon="6.43658">
        <ele>1768.6</ele>
        <time>2019-06-18T12:01:21Z</time>
      </trkpt>
      <trkpt lat="45.97952" lon="6.43664">
        <ele>1768.2</ele>
        <time>2019-06-18T12:01:26Z</time>
      </trkpt>
      <trkpt lat="45.97954" lon="6.4367">
        <ele>1767.8</ele>
        <time>2019-06-18T12:01:34Z</time>
      </trkpt>
      <trkpt lat="45.97956" lon="6.43678">
        <ele>1767.5</ele>
        <time>2019-06-18T12:01:41Z</time>
      </trkpt>
      <trkpt lat="45.97956" lon="6.43685">
        <ele>1767.2</ele>
        <time>2019-06-18T12:01:45Z</time>
      </trkpt>
      <trkpt lat="45.97955" lon="6.43691">
        <ele>1766.9</ele>
        <time>2019-06-18T12:01:48Z</time>
      </trkpt>
      <trkpt lat="45.97953" lon="6.43698">
        <ele>1766.3</ele>
        <time>2019-06-18T12:01:53Z</time>
      </trkpt>
      <trkpt lat="45.97952" lon="6.43705">
        <ele>1765.3</ele>
        <time>2019-06-18T12:02:00Z</time>
      </trkpt>
      <trkpt lat="45.97952" lon="6.43714">
        <ele>1764.9</ele>
        <time>2019-06-18T12:02:04Z</time>
      </trkpt>
      <trkpt lat="45.97952" lon="6.43721">
        <ele>1764.6</ele>
        <time>2019-06-18T12:02:09Z</time>
      </trkpt>
      <trkpt lat="45.97952" lon="6.43728">
        <ele>1764.5</ele>
        <time>2019-06-18T12:02:14Z</time>
      </trkpt>
      <trkpt lat="45.97954" lon="6.43734">
        <ele>1764.3</ele>
        <time>2019-06-18T12:02:18Z</time>
      </trkpt>
      <trkpt lat="45.97957" lon="6.4374">
        <ele>1763.4</ele>
        <time>2019-06-18T12:02:26Z</time>
      </trkpt>
      <trkpt lat="45.9796" lon="6.43746">
        <ele>1762.6</ele>
        <time>2019-06-18T12:02:33Z</time>
      </trkpt>
      <trkpt lat="45.97962" lon="6.43752">
        <ele>1762.2</ele>
        <time>2019-06-18T12:02:38Z</time>
      </trkpt>
      <trkpt lat="45.97962" lon="6.43759">
        <ele>1761.4</ele>
        <time>2019-06-18T12:02:45Z</time>
      </trkpt>
      <trkpt lat="45.97962" lon="6.43766">
        <ele>1760.8</ele>
        <time>2019-06-18T12:02:53Z</time>
      </trkpt>
      <trkpt lat="45.97962" lon="6.43773">
        <ele>1760.5</ele>
        <time>2019-06-18T12:02:58Z</time>
      </trkpt>
      <trkpt lat="45.97964" lon="6.43779">
        <ele>1760</ele>
        <time>2019-06-18T12:03:04Z</time>
      </trkpt>
      <trkpt lat="45.97967" lon="6.43785">
        <ele>1759.4</ele>
        <time>2019-06-18T12:03:09Z</time>
      </trkpt>
      <trkpt lat="45.97968" lon="6.43792">
        <ele>1758.7</ele>
        <time>2019-06-18T12:03:14Z</time>
      </trkpt>
      <trkpt lat="45.97969" lon="6.438">
        <ele>1758.3</ele>
        <time>2019-06-18T12:03:18Z</time>
      </trkpt>
      <trkpt lat="45.97971" lon="6.43806">
        <ele>1758.1</ele>
        <time>2019-06-18T12:03:22Z</time>
      </trkpt>
      <trkpt lat="45.97973" lon="6.43812">
        <ele>1757.9</ele>
        <time>2019-06-18T12:03:27Z</time>
      </trkpt>
      <trkpt lat="45.97976" lon="6.43817">
        <ele>1757.7</ele>
        <time>2019-06-18T12:03:37Z</time>
      </trkpt>
      <trkpt lat="45.9798" lon="6.4382">
        <ele>1756.8</ele>
        <time>2019-06-18T12:03:46Z</time>
      </trkpt>
      <trkpt lat="45.97982" lon="6.43826">
        <ele>1755.7</ele>
        <time>2019-06-18T12:03:53Z</time>
      </trkpt>
      <trkpt lat="45.97982" lon="6.43833">
        <ele>1754</ele>
        <time>2019-06-18T12:04:04Z</time>
      </trkpt>
      <trkpt lat="45.97983" lon="6.43839">
        <ele>1752</ele>
        <time>2019-06-18T12:04:14Z</time>
      </trkpt>
      <trkpt lat="45.9798" lon="6.43845">
        <ele>1749.1</ele>
        <time>2019-06-18T12:04:25Z</time>
      </trkpt>
      <trkpt lat="45.97976" lon="6.43849">
        <ele>1747.8</ele>
        <time>2019-06-18T12:04:37Z</time>
      </trkpt>
      <trkpt lat="45.97972" lon="6.43844">
        <ele>1747</ele>
        <time>2019-06-18T12:04:53Z</time>
      </trkpt>
      <trkpt lat="45.97968" lon="6.43847">
        <ele>1745.6</ele>
        <time>2019-06-18T12:05:16Z</time>
      </trkpt>
      <trkpt lat="45.97967" lon="6.43854">
        <ele>1745</ele>
        <time>2019-06-18T12:05:20Z</time>
      </trkpt>
      <trkpt lat="45.97968" lon="6.43861">
        <ele>1744</ele>
        <time>2019-06-18T12:05:24Z</time>
      </trkpt>
      <trkpt lat="45.97972" lon="6.43866">
        <ele>1741.3</ele>
        <time>2019-06-18T12:05:35Z</time>
      </trkpt>
      <trkpt lat="45.97973" lon="6.43873">
        <ele>1740.3</ele>
        <time>2019-06-18T12:05:43Z</time>
      </trkpt>
      <trkpt lat="45.97976" lon="6.43878">
        <ele>1740</ele>
        <time>2019-06-18T12:05:49Z</time>
      </trkpt>
      <trkpt lat="45.97979" lon="6.43884">
        <ele>1739.6</ele>
        <time>2019-06-18T12:05:57Z</time>
      </trkpt>
      <trkpt lat="45.9798" lon="6.43891">
        <ele>1738.7</ele>
        <time>2019-06-18T12:06:02Z</time>
      </trkpt>
      <trkpt lat="45.97975" lon="6.43892">
        <ele>1736.7</ele>
        <time>2019-06-18T12:06:11Z</time>
      </trkpt>
      <trkpt lat="45.97971" lon="6.43895">
        <ele>1735.9</ele>
        <time>2019-06-18T12:06:17Z</time>
      </trkpt>
      <trkpt lat="45.97966" lon="6.43898">
        <ele>1735.2</ele>
        <time>2019-06-18T12:06:23Z</time>
      </trkpt>
      <trkpt lat="45.97962" lon="6.439">
        <ele>1734.1</ele>
        <time>2019-06-18T12:06:30Z</time>
      </trkpt>
      <trkpt lat="45.97957" lon="6.43901">
        <ele>1732.8</ele>
        <time>2019-06-18T12:06:36Z</time>
      </trkpt>
      <trkpt lat="45.97952" lon="6.43901">
        <ele>1731.6</ele>
        <time>2019-06-18T12:06:42Z</time>
      </trkpt>
      <trkpt lat="45.97948" lon="6.43899">
        <ele>1730.2</ele>
        <time>2019-06-18T12:06:50Z</time>
      </trkpt>
      <trkpt lat="45.97943" lon="6.43897">
        <ele>1729.1</ele>
        <time>2019-06-18T12:06:55Z</time>
      </trkpt>
      <trkpt lat="45.97938" lon="6.43897">
        <ele>1728</ele>
        <time>2019-06-18T12:07:00Z</time>
      </trkpt>
      <trkpt lat="45.97933" lon="6.43898">
        <ele>1727</ele>
        <time>2019-06-18T12:07:04Z</time>
      </trkpt>
      <trkpt lat="45.97928" lon="6.43902">
        <ele>1725.8</ele>
        <time>2019-06-18T12:07:09Z</time>
      </trkpt>
      <trkpt lat="45.97925" lon="6.43906">
        <ele>1724.9</ele>
        <time>2019-06-18T12:07:14Z</time>
      </trkpt>
      <trkpt lat="45.97922" lon="6.4391">
        <ele>1724.1</ele>
        <time>2019-06-18T12:07:20Z</time>
      </trkpt>
      <trkpt lat="45.97918" lon="6.43915">
        <ele>1723.2</ele>
        <time>2019-06-18T12:07:27Z</time>
      </trkpt>
      <trkpt lat="45.97918" lon="6.43923">
        <ele>1722.2</ele>
        <time>2019-06-18T12:07:35Z</time>
      </trkpt>
      <trkpt lat="45.97919" lon="6.4393">
        <ele>1721.6</ele>
        <time>2019-06-18T12:07:41Z</time>
      </trkpt>
      <trkpt lat="45.97921" lon="6.43936">
        <ele>1720.9</ele>
        <time>2019-06-18T12:07:49Z</time>
      </trkpt>
      <trkpt lat="45.97923" lon="6.43942">
        <ele>1720.2</ele>
        <time>2019-06-18T12:08:02Z</time>
      </trkpt>
      <trkpt lat="45.9792" lon="6.43947">
        <ele>1719.5</ele>
        <time>2019-06-18T12:08:10Z</time>
      </trkpt>
      <trkpt lat="45.97915" lon="6.4395">
        <ele>1718.4</ele>
        <time>2019-06-18T12:08:19Z</time>
      </trkpt>
      <trkpt lat="45.97918" lon="6.43956">
        <ele>1717.2</ele>
        <time>2019-06-18T12:08:27Z</time>
      </trkpt>
      <trkpt lat="45.97922" lon="6.43961">
        <ele>1716.3</ele>
        <time>2019-06-18T12:08:32Z</time>
      </trkpt>
      <trkpt lat="45.97926" lon="6.43963">
        <ele>1714.6</ele>
        <time>2019-06-18T12:08:41Z</time>
      </trkpt>
      <trkpt lat="45.9793" lon="6.43966">
        <ele>1713.1</ele>
        <time>2019-06-18T12:08:49Z</time>
      </trkpt>
      <trkpt lat="45.97933" lon="6.43971">
        <ele>1712</ele>
        <time>2019-06-18T12:08:56Z</time>
      </trkpt>
      <trkpt lat="45.97936" lon="6.43977">
        <ele>1711.5</ele>
        <time>2019-06-18T12:09:03Z</time>
      </trkpt>
      <trkpt lat="45.97937" lon="6.43983">
        <ele>1710.9</ele>
        <time>2019-06-18T12:09:11Z</time>
      </trkpt>
      <trkpt lat="45.97938" lon="6.4399">
        <ele>1709.6</ele>
        <time>2019-06-18T12:09:18Z</time>
      </trkpt>
      <trkpt lat="45.97937" lon="6.43997">
        <ele>1707.8</ele>
        <time>2019-06-18T12:09:27Z</time>
      </trkpt>
      <trkpt lat="45.97932" lon="6.43994">
        <ele>1706.1</ele>
        <time>2019-06-18T12:09:36Z</time>
      </trkpt>
      <trkpt lat="45.97927" lon="6.43995">
        <ele>1704.7</ele>
        <time>2019-06-18T12:09:43Z</time>
      </trkpt>
      <trkpt lat="45.97928" lon="6.44002">
        <ele>1703</ele>
        <time>2019-06-18T12:09:52Z</time>
      </trkpt>
      <trkpt lat="45.97926" lon="6.44008">
        <ele>1698.3</ele>
        <time>2019-06-18T12:10:14Z</time>
      </trkpt>
      <trkpt lat="45.97926" lon="6.44015">
        <ele>1696.8</ele>
        <time>2019-06-18T12:10:20Z</time>
      </trkpt>
      <trkpt lat="45.97928" lon="6.44022">
        <ele>1695.9</ele>
        <time>2019-06-18T12:10:25Z</time>
      </trkpt>
      <trkpt lat="45.97932" lon="6.44027">
        <ele>1695</ele>
        <time>2019-06-18T12:10:31Z</time>
      </trkpt>
      <trkpt lat="45.97936" lon="6.44031">
        <ele>1694.4</ele>
        <time>2019-06-18T12:10:37Z</time>
      </trkpt>
      <trkpt lat="45.9794" lon="6.44035">
        <ele>1693.6</ele>
        <time>2019-06-18T12:10:42Z</time>
      </trkpt>
      <trkpt lat="45.97943" lon="6.44039">
        <ele>1692.8</ele>
        <time>2019-06-18T12:10:47Z</time>
      </trkpt>
      <trkpt lat="45.97947" lon="6.44042">
        <ele>1691.5</ele>
        <time>2019-06-18T12:10:54Z</time>
      </trkpt>
      <trkpt lat="45.97951" lon="6.44048">
        <ele>1690.2</ele>
        <time>2019-06-18T12:11:00Z</time>
      </trkpt>
      <trkpt lat="45.97952" lon="6.44054">
        <ele>1689.1</ele>
        <time>2019-06-18T12:11:06Z</time>
      </trkpt>
      <trkpt lat="45.97953" lon="6.44061">
        <ele>1687.7</ele>
        <time>2019-06-18T12:11:15Z</time>
      </trkpt>
      <trkpt lat="45.97953" lon="6.44067">
        <ele>1686.5</ele>
        <time>2019-06-18T12:11:22Z</time>
      </trkpt>
      <trkpt lat="45.97953" lon="6.44074">
        <ele>1685.2</ele>
        <time>2019-06-18T12:11:29Z</time>
      </trkpt>
      <trkpt lat="45.97955" lon="6.44081">
        <ele>1684.3</ele>
        <time>2019-06-18T12:11:34Z</time>
      </trkpt>
      <trkpt lat="45.97957" lon="6.44087">
        <ele>1683</ele>
        <time>2019-06-18T12:11:41Z</time>
      </trkpt>
      <trkpt lat="45.9796" lon="6.44092">
        <ele>1681.9</ele>
        <time>2019-06-18T12:11:49Z</time>
      </trkpt>
      <trkpt lat="45.97963" lon="6.44098">
        <ele>1681.2</ele>
        <time>2019-06-18T12:11:56Z</time>
      </trkpt>
      <trkpt lat="45.9796" lon="6.44103">
        <ele>1678.4</ele>
        <time>2019-06-18T12:12:10Z</time>
      </trkpt>
      <trkpt lat="45.97956" lon="6.44107">
        <ele>1676.5</ele>
        <time>2019-06-18T12:12:19Z</time>
      </trkpt>
      <trkpt lat="45.97951" lon="6.44105">
        <ele>1675.2</ele>
        <time>2019-06-18T12:12:25Z</time>
      </trkpt>
      <trkpt lat="45.97946" lon="6.44102">
        <ele>1674.1</ele>
        <time>2019-06-18T12:12:30Z</time>
      </trkpt>
      <trkpt lat="45.97942" lon="6.44099">
        <ele>1672.9</ele>
        <time>2019-06-18T12:12:36Z</time>
      </trkpt>
      <trkpt lat="45.97937" lon="6.44097">
        <ele>1671.4</ele>
        <time>2019-06-18T12:12:44Z</time>
      </trkpt>
      <trkpt lat="45.97933" lon="6.44097">
        <ele>1670.1</ele>
        <time>2019-06-18T12:12:51Z</time>
      </trkpt>
      <trkpt lat="45.97929" lon="6.44102">
        <ele>1668.8</ele>
        <time>2019-06-18T12:13:05Z</time>
      </trkpt>
      <trkpt lat="45.97927" lon="6.44107">
        <ele>1667.7</ele>
        <time>2019-06-18T12:13:19Z</time>
      </trkpt>
      <trkpt lat="45.97924" lon="6.44113">
        <ele>1666.4</ele>
        <time>2019-06-18T12:13:30Z</time>
      </trkpt>
      <trkpt lat="45.97921" lon="6.44118">
        <ele>1664.6</ele>
        <time>2019-06-18T12:13:40Z</time>
      </trkpt>
      <trkpt lat="45.9792" lon="6.44125">
        <ele>1661.8</ele>
        <time>2019-06-18T12:13:51Z</time>
      </trkpt>
      <trkpt lat="45.97917" lon="6.4413">
        <ele>1658.7</ele>
        <time>2019-06-18T12:14:01Z</time>
      </trkpt>
      <trkpt lat="45.97915" lon="6.44136">
        <ele>1657.1</ele>
        <time>2019-06-18T12:14:06Z</time>
      </trkpt>
      <trkpt lat="45.97916" lon="6.44144">
        <ele>1655.3</ele>
        <time>2019-06-18T12:14:12Z</time>
      </trkpt>
      <trkpt lat="45.97918" lon="6.4415">
        <ele>1654.3</ele>
        <time>2019-06-18T12:14:16Z</time>
      </trkpt>
      <trkpt lat="45.97921" lon="6.44155">
        <ele>1653.2</ele>
        <time>2019-06-18T12:14:21Z</time>
      </trkpt>
      <trkpt lat="45.97924" lon="6.44161">
        <ele>1652.5</ele>
        <time>2019-06-18T12:14:25Z</time>
      </trkpt>
      <trkpt lat="45.97926" lon="6.44167">
        <ele>1652</ele>
        <time>2019-06-18T12:14:29Z</time>
      </trkpt>
      <trkpt lat="45.9793" lon="6.44172">
        <ele>1651.6</ele>
        <time>2019-06-18T12:14:33Z</time>
      </trkpt>
      <trkpt lat="45.97933" lon="6.44176">
        <ele>1651.2</ele>
        <time>2019-06-18T12:14:44Z</time>
      </trkpt>
      <trkpt lat="45.97938" lon="6.44176">
        <ele>1651.1</ele>
        <time>2019-06-18T12:14:49Z</time>
      </trkpt>
      <trkpt lat="45.97942" lon="6.44174">
        <ele>1651.1</ele>
        <time>2019-06-18T12:14:52Z</time>
      </trkpt>
      <trkpt lat="45.97947" lon="6.44174">
        <ele>1650.9</ele>
        <time>2019-06-18T12:14:59Z</time>
      </trkpt>
      <trkpt lat="45.97952" lon="6.44174">
        <ele>1650.6</ele>
        <time>2019-06-18T12:15:06Z</time>
      </trkpt>
      <trkpt lat="45.97957" lon="6.44174">
        <ele>1650.4</ele>
        <time>2019-06-18T12:15:18Z</time>
      </trkpt>
      <trkpt lat="45.97961" lon="6.44171">
        <ele>1649.9</ele>
        <time>2019-06-18T12:15:33Z</time>
      </trkpt>
      <trkpt lat="45.97961" lon="6.44164">
        <ele>1646.8</ele>
        <time>2019-06-18T12:16:50Z</time>
      </trkpt>
      <trkpt lat="45.97964" lon="6.44169">
        <ele>1646.8</ele>
        <time>2019-06-18T12:23:43Z</time>
      </trkpt>
      <trkpt lat="45.97968" lon="6.44174">
        <ele>1646.3</ele>
        <time>2019-06-18T12:24:06Z</time>
      </trkpt>
      <trkpt lat="45.97972" lon="6.44177">
        <ele>1645.8</ele>
        <time>2019-06-18T12:24:13Z</time>
      </trkpt>
      <trkpt lat="45.97976" lon="6.4418">
        <ele>1645.2</ele>
        <time>2019-06-18T12:24:21Z</time>
      </trkpt>
      <trkpt lat="45.9798" lon="6.44184">
        <ele>1644.7</ele>
        <time>2019-06-18T12:24:36Z</time>
      </trkpt>
      <trkpt lat="45.97984" lon="6.44187">
        <ele>1645</ele>
        <time>2019-06-18T12:24:46Z</time>
      </trkpt>
      <trkpt lat="45.97989" lon="6.44186">
        <ele>1644.7</ele>
        <time>2019-06-18T12:24:52Z</time>
      </trkpt>
      <trkpt lat="45.97994" lon="6.44183">
        <ele>1643.8</ele>
        <time>2019-06-18T12:24:59Z</time>
      </trkpt>
      <trkpt lat="45.97998" lon="6.4418">
        <ele>1643.3</ele>
        <time>2019-06-18T12:25:04Z</time>
      </trkpt>
      <trkpt lat="45.98003" lon="6.44178">
        <ele>1642.8</ele>
        <time>2019-06-18T12:25:10Z</time>
      </trkpt>
      <trkpt lat="45.98006" lon="6.44183">
        <ele>1642.3</ele>
        <time>2019-06-18T12:25:17Z</time>
      </trkpt>
      <trkpt lat="45.98011" lon="6.44187">
        <ele>1641.3</ele>
        <time>2019-06-18T12:25:26Z</time>
      </trkpt>
      <trkpt lat="45.98015" lon="6.44191">
        <ele>1640.8</ele>
        <time>2019-06-18T12:25:30Z</time>
      </trkpt>
      <trkpt lat="45.9802" lon="6.44195">
        <ele>1640.3</ele>
        <time>2019-06-18T12:25:35Z</time>
      </trkpt>
      <trkpt lat="45.98025" lon="6.44197">
        <ele>1639.7</ele>
        <time>2019-06-18T12:25:40Z</time>
      </trkpt>
      <trkpt lat="45.98029" lon="6.442">
        <ele>1639.1</ele>
        <time>2019-06-18T12:25:46Z</time>
      </trkpt>
      <trkpt lat="45.98033" lon="6.44202">
        <ele>1638.4</ele>
        <time>2019-06-18T12:25:54Z</time>
      </trkpt>
      <trkpt lat="45.98037" lon="6.44204">
        <ele>1637.5</ele>
        <time>2019-06-18T12:26:02Z</time>
      </trkpt>
      <trkpt lat="45.98039" lon="6.44211">
        <ele>1636.5</ele>
        <time>2019-06-18T12:26:09Z</time>
      </trkpt>
      <trkpt lat="45.98043" lon="6.44216">
        <ele>1635.9</ele>
        <time>2019-06-18T12:26:14Z</time>
      </trkpt>
      <trkpt lat="45.98048" lon="6.44219">
        <ele>1635.4</ele>
        <time>2019-06-18T12:26:18Z</time>
      </trkpt>
      <trkpt lat="45.98052" lon="6.44222">
        <ele>1634.5</ele>
        <time>2019-06-18T12:26:23Z</time>
      </trkpt>
      <trkpt lat="45.98056" lon="6.44224">
        <ele>1633.2</ele>
        <time>2019-06-18T12:26:29Z</time>
      </trkpt>
      <trkpt lat="45.98061" lon="6.44227">
        <ele>1631.7</ele>
        <time>2019-06-18T12:26:37Z</time>
      </trkpt>
      <trkpt lat="45.98064" lon="6.44231">
        <ele>1629.9</ele>
        <time>2019-06-18T12:26:44Z</time>
      </trkpt>
      <trkpt lat="45.98068" lon="6.44236">
        <ele>1628.3</ele>
        <time>2019-06-18T12:26:50Z</time>
      </trkpt>
      <trkpt lat="45.9807" lon="6.44242">
        <ele>1626.6</ele>
        <time>2019-06-18T12:26:56Z</time>
      </trkpt>
      <trkpt lat="45.98072" lon="6.44249">
        <ele>1625.2</ele>
        <time>2019-06-18T12:27:01Z</time>
      </trkpt>
      <trkpt lat="45.98075" lon="6.44255">
        <ele>1623.6</ele>
        <time>2019-06-18T12:27:08Z</time>
      </trkpt>
      <trkpt lat="45.98077" lon="6.44262">
        <ele>1622.7</ele>
        <time>2019-06-18T12:27:14Z</time>
      </trkpt>
      <trkpt lat="45.98077" lon="6.44268">
        <ele>1622.2</ele>
        <time>2019-06-18T12:27:20Z</time>
      </trkpt>
      <trkpt lat="45.98077" lon="6.44276">
        <ele>1621.5</ele>
        <time>2019-06-18T12:27:27Z</time>
      </trkpt>
      <trkpt lat="45.98079" lon="6.4428">
        <ele>1622.8</ele>
        <time>2019-06-18T12:28:24Z</time>
      </trkpt>
      <trkpt lat="45.9808" lon="6.44287">
        <ele>1622.4</ele>
        <time>2019-06-18T12:28:28Z</time>
      </trkpt>
      <trkpt lat="45.98082" lon="6.44295">
        <ele>1621.7</ele>
        <time>2019-06-18T12:28:33Z</time>
      </trkpt>
      <trkpt lat="45.98081" lon="6.44302">
        <ele>1619.8</ele>
        <time>2019-06-18T12:28:41Z</time>
      </trkpt>
      <trkpt lat="45.9808" lon="6.44309">
        <ele>1617.7</ele>
        <time>2019-06-18T12:28:47Z</time>
      </trkpt>
      <trkpt lat="45.9808" lon="6.44316">
        <ele>1615</ele>
        <time>2019-06-18T12:28:53Z</time>
      </trkpt>
      <trkpt lat="45.98082" lon="6.44323">
        <ele>1612.2</ele>
        <time>2019-06-18T12:28:59Z</time>
      </trkpt>
      <trkpt lat="45.98082" lon="6.4433">
        <ele>1609.4</ele>
        <time>2019-06-18T12:29:05Z</time>
      </trkpt>
      <trkpt lat="45.98082" lon="6.44336">
        <ele>1607.3</ele>
        <time>2019-06-18T12:29:10Z</time>
      </trkpt>
      <trkpt lat="45.98081" lon="6.44344">
        <ele>1604.9</ele>
        <time>2019-06-18T12:29:15Z</time>
      </trkpt>
      <trkpt lat="45.98081" lon="6.44352">
        <ele>1601.8</ele>
        <time>2019-06-18T12:29:22Z</time>
      </trkpt>
      <trkpt lat="45.98081" lon="6.44359">
        <ele>1599.3</ele>
        <time>2019-06-18T12:29:28Z</time>
      </trkpt>
      <trkpt lat="45.98082" lon="6.44365">
        <ele>1596.5</ele>
        <time>2019-06-18T12:29:35Z</time>
      </trkpt>
      <trkpt lat="45.98081" lon="6.44372">
        <ele>1593.6</ele>
        <time>2019-06-18T12:29:42Z</time>
      </trkpt>
      <trkpt lat="45.98079" lon="6.44378">
        <ele>1591.6</ele>
        <time>2019-06-18T12:29:47Z</time>
      </trkpt>
      <trkpt lat="45.98079" lon="6.44385">
        <ele>1590.1</ele>
        <time>2019-06-18T12:29:52Z</time>
      </trkpt>
      <trkpt lat="45.98079" lon="6.44392">
        <ele>1589.1</ele>
        <time>2019-06-18T12:29:57Z</time>
      </trkpt>
      <trkpt lat="45.98078" lon="6.44399">
        <ele>1588.5</ele>
        <time>2019-06-18T12:30:02Z</time>
      </trkpt>
      <trkpt lat="45.98077" lon="6.44406">
        <ele>1587.9</ele>
        <time>2019-06-18T12:30:08Z</time>
      </trkpt>
      <trkpt lat="45.98075" lon="6.44412">
        <ele>1588.2</ele>
        <time>2019-06-18T12:30:14Z</time>
      </trkpt>
      <trkpt lat="45.98072" lon="6.44418">
        <ele>1589</ele>
        <time>2019-06-18T12:30:20Z</time>
      </trkpt>
      <trkpt lat="45.98068" lon="6.4442">
        <ele>1590.1</ele>
        <time>2019-06-18T12:30:25Z</time>
      </trkpt>
      <trkpt lat="45.98067" lon="6.44427">
        <ele>1591</ele>
        <time>2019-06-18T12:30:32Z</time>
      </trkpt>
      <trkpt lat="45.98069" lon="6.44434">
        <ele>1591</ele>
        <time>2019-06-18T12:30:37Z</time>
      </trkpt>
      <trkpt lat="45.9807" lon="6.44441">
        <ele>1590.5</ele>
        <time>2019-06-18T12:30:42Z</time>
      </trkpt>
      <trkpt lat="45.98068" lon="6.44448">
        <ele>1589.9</ele>
        <time>2019-06-18T12:30:47Z</time>
      </trkpt>
      <trkpt lat="45.98069" lon="6.44455">
        <ele>1589.1</ele>
        <time>2019-06-18T12:30:53Z</time>
      </trkpt>
      <trkpt lat="45.98067" lon="6.44462">
        <ele>1588</ele>
        <time>2019-06-18T12:30:59Z</time>
      </trkpt>
      <trkpt lat="45.98066" lon="6.44469">
        <ele>1587.1</ele>
        <time>2019-06-18T12:31:04Z</time>
      </trkpt>
      <trkpt lat="45.98063" lon="6.44475">
        <ele>1585.7</ele>
        <time>2019-06-18T12:31:10Z</time>
      </trkpt>
      <trkpt lat="45.9806" lon="6.4448">
        <ele>1585</ele>
        <time>2019-06-18T12:31:13Z</time>
      </trkpt>
      <trkpt lat="45.98057" lon="6.44486">
        <ele>1584.3</ele>
        <time>2019-06-18T12:31:17Z</time>
      </trkpt>
      <trkpt lat="45.98054" lon="6.44492">
        <ele>1583.7</ele>
        <time>2019-06-18T12:31:21Z</time>
      </trkpt>
      <trkpt lat="45.98052" lon="6.44499">
        <ele>1583.3</ele>
        <time>2019-06-18T12:31:26Z</time>
      </trkpt>
      <trkpt lat="45.98051" lon="6.44506">
        <ele>1583.1</ele>
        <time>2019-06-18T12:31:31Z</time>
      </trkpt>
      <trkpt lat="45.98048" lon="6.44512">
        <ele>1582.9</ele>
        <time>2019-06-18T12:31:38Z</time>
      </trkpt>
      <trkpt lat="45.98046" lon="6.44518">
        <ele>1582.5</ele>
        <time>2019-06-18T12:31:44Z</time>
      </trkpt>
      <trkpt lat="45.98045" lon="6.44526">
        <ele>1582.1</ele>
        <time>2019-06-18T12:31:49Z</time>
      </trkpt>
      <trkpt lat="45.98044" lon="6.44532">
        <ele>1581.8</ele>
        <time>2019-06-18T12:31:54Z</time>
      </trkpt>
      <trkpt lat="45.98046" lon="6.4454">
        <ele>1581.3</ele>
        <time>2019-06-18T12:31:59Z</time>
      </trkpt>
      <trkpt lat="45.98048" lon="6.44546">
        <ele>1580.8</ele>
        <time>2019-06-18T12:32:03Z</time>
      </trkpt>
      <trkpt lat="45.98051" lon="6.44552">
        <ele>1580.4</ele>
        <time>2019-06-18T12:32:07Z</time>
      </trkpt>
      <trkpt lat="45.98054" lon="6.44557">
        <ele>1580.1</ele>
        <time>2019-06-18T12:32:12Z</time>
      </trkpt>
      <trkpt lat="45.98058" lon="6.44563">
        <ele>1578.8</ele>
        <time>2019-06-18T12:32:20Z</time>
      </trkpt>
      <trkpt lat="45.9806" lon="6.44569">
        <ele>1577.9</ele>
        <time>2019-06-18T12:32:25Z</time>
      </trkpt>
      <trkpt lat="45.98062" lon="6.44576">
        <ele>1576.6</ele>
        <time>2019-06-18T12:32:32Z</time>
      </trkpt>
      <trkpt lat="45.98066" lon="6.44581">
        <ele>1575.4</ele>
        <time>2019-06-18T12:32:38Z</time>
      </trkpt>
      <trkpt lat="45.98069" lon="6.44587">
        <ele>1573.4</ele>
        <time>2019-06-18T12:32:47Z</time>
      </trkpt>
      <trkpt lat="45.98071" lon="6.44594">
        <ele>1571.8</ele>
        <time>2019-06-18T12:32:53Z</time>
      </trkpt>
      <trkpt lat="45.98074" lon="6.44599">
        <ele>1570.6</ele>
        <time>2019-06-18T12:32:58Z</time>
      </trkpt>
      <trkpt lat="45.98075" lon="6.44606">
        <ele>1569.5</ele>
        <time>2019-06-18T12:33:04Z</time>
      </trkpt>
      <trkpt lat="45.98076" lon="6.44613">
        <ele>1568.8</ele>
        <time>2019-06-18T12:33:08Z</time>
      </trkpt>
      <trkpt lat="45.98076" lon="6.44619">
        <ele>1567.8</ele>
        <time>2019-06-18T12:33:14Z</time>
      </trkpt>
      <trkpt lat="45.98074" lon="6.44626">
        <ele>1567.1</ele>
        <time>2019-06-18T12:33:19Z</time>
      </trkpt>
      <trkpt lat="45.98074" lon="6.44633">
        <ele>1566.4</ele>
        <time>2019-06-18T12:33:24Z</time>
      </trkpt>
      <trkpt lat="45.98075" lon="6.44641">
        <ele>1565.8</ele>
        <time>2019-06-18T12:33:29Z</time>
      </trkpt>
      <trkpt lat="45.98076" lon="6.44647">
        <ele>1565.4</ele>
        <time>2019-06-18T12:33:33Z</time>
      </trkpt>
      <trkpt lat="45.98078" lon="6.44654">
        <ele>1564.8</ele>
        <time>2019-06-18T12:33:39Z</time>
      </trkpt>
      <trkpt lat="45.98081" lon="6.4466">
        <ele>1564.5</ele>
        <time>2019-06-18T12:33:43Z</time>
      </trkpt>
      <trkpt lat="45.98082" lon="6.44668">
        <ele>1564.2</ele>
        <time>2019-06-18T12:33:47Z</time>
      </trkpt>
      <trkpt lat="45.98083" lon="6.44675">
        <ele>1564</ele>
        <time>2019-06-18T12:33:51Z</time>
      </trkpt>
      <trkpt lat="45.98082" lon="6.44682">
        <ele>1563.8</ele>
        <time>2019-06-18T12:33:55Z</time>
      </trkpt>
      <trkpt lat="45.98081" lon="6.44688">
        <ele>1564.2</ele>
        <time>2019-06-18T12:34:03Z</time>
      </trkpt>
      <trkpt lat="45.98083" lon="6.44696">
        <ele>1564.5</ele>
        <time>2019-06-18T12:34:08Z</time>
      </trkpt>
      <trkpt lat="45.98085" lon="6.44704">
        <ele>1564.8</ele>
        <time>2019-06-18T12:34:12Z</time>
      </trkpt>
      <trkpt lat="45.98086" lon="6.4471">
        <ele>1565</ele>
        <time>2019-06-18T12:34:20Z</time>
      </trkpt>
      <trkpt lat="45.98084" lon="6.44717">
        <ele>1564.7</ele>
        <time>2019-06-18T12:34:28Z</time>
      </trkpt>
      <trkpt lat="45.98081" lon="6.44722">
        <ele>1564.1</ele>
        <time>2019-06-18T12:34:35Z</time>
      </trkpt>
      <trkpt lat="45.98081" lon="6.44729">
        <ele>1563.4</ele>
        <time>2019-06-18T12:34:39Z</time>
      </trkpt>
      <trkpt lat="45.98082" lon="6.44738">
        <ele>1563</ele>
        <time>2019-06-18T12:34:42Z</time>
      </trkpt>
      <trkpt lat="45.98082" lon="6.44745">
        <ele>1562.7</ele>
        <time>2019-06-18T12:34:45Z</time>
      </trkpt>
      <trkpt lat="45.98083" lon="6.44751">
        <ele>1562.5</ele>
        <time>2019-06-18T12:34:48Z</time>
      </trkpt>
      <trkpt lat="45.98083" lon="6.44758">
        <ele>1562.3</ele>
        <time>2019-06-18T12:34:52Z</time>
      </trkpt>
      <trkpt lat="45.98081" lon="6.44764">
        <ele>1562.2</ele>
        <time>2019-06-18T12:34:57Z</time>
      </trkpt>
      <trkpt lat="45.98081" lon="6.44772">
        <ele>1562.1</ele>
        <time>2019-06-18T12:35:03Z</time>
      </trkpt>
      <trkpt lat="45.98081" lon="6.44779">
        <ele>1561.9</ele>
        <time>2019-06-18T12:35:07Z</time>
      </trkpt>
      <trkpt lat="45.98082" lon="6.44786">
        <ele>1561.5</ele>
        <time>2019-06-18T12:35:12Z</time>
      </trkpt>
      <trkpt lat="45.98085" lon="6.44793">
        <ele>1560.9</ele>
        <time>2019-06-18T12:35:17Z</time>
      </trkpt>
      <trkpt lat="45.98088" lon="6.44798">
        <ele>1560.3</ele>
        <time>2019-06-18T12:35:21Z</time>
      </trkpt>
      <trkpt lat="45.98093" lon="6.44802">
        <ele>1559.6</ele>
        <time>2019-06-18T12:35:25Z</time>
      </trkpt>
      <trkpt lat="45.98097" lon="6.44808">
        <ele>1559.1</ele>
        <time>2019-06-18T12:35:29Z</time>
      </trkpt>
      <trkpt lat="45.981" lon="6.44812">
        <ele>1558.8</ele>
        <time>2019-06-18T12:35:33Z</time>
      </trkpt>
      <trkpt lat="45.98104" lon="6.44818">
        <ele>1558.5</ele>
        <time>2019-06-18T12:35:37Z</time>
      </trkpt>
      <trkpt lat="45.98108" lon="6.44824">
        <ele>1558.3</ele>
        <time>2019-06-18T12:35:40Z</time>
      </trkpt>
      <trkpt lat="45.98111" lon="6.4483">
        <ele>1558.2</ele>
        <time>2019-06-18T12:35:44Z</time>
      </trkpt>
      <trkpt lat="45.98115" lon="6.44834">
        <ele>1558.1</ele>
        <time>2019-06-18T12:35:49Z</time>
      </trkpt>
      <trkpt lat="45.9812" lon="6.44839">
        <ele>1558.1</ele>
        <time>2019-06-18T12:35:55Z</time>
      </trkpt>
      <trkpt lat="45.98124" lon="6.44845">
        <ele>1558</ele>
        <time>2019-06-18T12:36:00Z</time>
      </trkpt>
      <trkpt lat="45.98127" lon="6.44851">
        <ele>1557.8</ele>
        <time>2019-06-18T12:36:05Z</time>
      </trkpt>
      <trkpt lat="45.98129" lon="6.44857">
        <ele>1557.7</ele>
        <time>2019-06-18T12:36:10Z</time>
      </trkpt>
      <trkpt lat="45.98129" lon="6.44864">
        <ele>1557.3</ele>
        <time>2019-06-18T12:36:17Z</time>
      </trkpt>
      <trkpt lat="45.9813" lon="6.44871">
        <ele>1556.8</ele>
        <time>2019-06-18T12:36:24Z</time>
      </trkpt>
      <trkpt lat="45.98132" lon="6.44878">
        <ele>1556.3</ele>
        <time>2019-06-18T12:36:31Z</time>
      </trkpt>
      <trkpt lat="45.98133" lon="6.44884">
        <ele>1555.8</ele>
        <time>2019-06-18T12:36:36Z</time>
      </trkpt>
      <trkpt lat="45.98136" lon="6.44891">
        <ele>1555.4</ele>
        <time>2019-06-18T12:36:41Z</time>
      </trkpt>
      <trkpt lat="45.98139" lon="6.44897">
        <ele>1555.2</ele>
        <time>2019-06-18T12:36:46Z</time>
      </trkpt>
      <trkpt lat="45.98142" lon="6.44903">
        <ele>1555</ele>
        <time>2019-06-18T12:36:50Z</time>
      </trkpt>
      <trkpt lat="45.98145" lon="6.4491">
        <ele>1554.8</ele>
        <time>2019-06-18T12:36:55Z</time>
      </trkpt>
      <trkpt lat="45.98148" lon="6.44917">
        <ele>1554.5</ele>
        <time>2019-06-18T12:36:59Z</time>
      </trkpt>
      <trkpt lat="45.9815" lon="6.44923">
        <ele>1554.2</ele>
        <time>2019-06-18T12:37:03Z</time>
      </trkpt>
      <trkpt lat="45.98152" lon="6.44929">
        <ele>1553.9</ele>
        <time>2019-06-18T12:37:08Z</time>
      </trkpt>
      <trkpt lat="45.98154" lon="6.44936">
        <ele>1553.2</ele>
        <time>2019-06-18T12:37:14Z</time>
      </trkpt>
      <trkpt lat="45.98156" lon="6.44942">
        <ele>1552.7</ele>
        <time>2019-06-18T12:37:20Z</time>
      </trkpt>
      <trkpt lat="45.98158" lon="6.44948">
        <ele>1552.3</ele>
        <time>2019-06-18T12:37:24Z</time>
      </trkpt>
      <trkpt lat="45.98161" lon="6.44954">
        <ele>1551.9</ele>
        <time>2019-06-18T12:37:29Z</time>
      </trkpt>
      <trkpt lat="45.98161" lon="6.44962">
        <ele>1551.3</ele>
        <time>2019-06-18T12:37:35Z</time>
      </trkpt>
      <trkpt lat="45.98163" lon="6.44969">
        <ele>1550.8</ele>
        <time>2019-06-18T12:37:42Z</time>
      </trkpt>
      <trkpt lat="45.98163" lon="6.44976">
        <ele>1550.3</ele>
        <time>2019-06-18T12:37:50Z</time>
      </trkpt>
      <trkpt lat="45.98163" lon="6.44983">
        <ele>1550</ele>
        <time>2019-06-18T12:37:56Z</time>
      </trkpt>
      <trkpt lat="45.98162" lon="6.4499">
        <ele>1549.1</ele>
        <time>2019-06-18T12:38:05Z</time>
      </trkpt>
      <trkpt lat="45.98165" lon="6.44996">
        <ele>1547.9</ele>
        <time>2019-06-18T12:38:12Z</time>
      </trkpt>
      <trkpt lat="45.98167" lon="6.45002">
        <ele>1547.2</ele>
        <time>2019-06-18T12:38:18Z</time>
      </trkpt>
      <trkpt lat="45.98169" lon="6.45009">
        <ele>1546.5</ele>
        <time>2019-06-18T12:38:23Z</time>
      </trkpt>
      <trkpt lat="45.9817" lon="6.45016">
        <ele>1545.8</ele>
        <time>2019-06-18T12:38:29Z</time>
      </trkpt>
      <trkpt lat="45.98172" lon="6.45022">
        <ele>1545.2</ele>
        <time>2019-06-18T12:38:36Z</time>
      </trkpt>
      <trkpt lat="45.98173" lon="6.45029">
        <ele>1544.8</ele>
        <time>2019-06-18T12:38:41Z</time>
      </trkpt>
      <trkpt lat="45.98175" lon="6.45036">
        <ele>1544.6</ele>
        <time>2019-06-18T12:38:46Z</time>
      </trkpt>
      <trkpt lat="45.98177" lon="6.45042">
        <ele>1544.3</ele>
        <time>2019-06-18T12:38:53Z</time>
      </trkpt>
      <trkpt lat="45.9818" lon="6.45049">
        <ele>1543.9</ele>
        <time>2019-06-18T12:38:59Z</time>
      </trkpt>
      <trkpt lat="45.98182" lon="6.45055">
        <ele>1543.3</ele>
        <time>2019-06-18T12:39:05Z</time>
      </trkpt>
      <trkpt lat="45.98185" lon="6.45061">
        <ele>1542.7</ele>
        <time>2019-06-18T12:39:10Z</time>
      </trkpt>
      <trkpt lat="45.98186" lon="6.45067">
        <ele>1542.3</ele>
        <time>2019-06-18T12:39:14Z</time>
      </trkpt>
      <trkpt lat="45.98189" lon="6.45072">
        <ele>1541.9</ele>
        <time>2019-06-18T12:39:18Z</time>
      </trkpt>
      <trkpt lat="45.98192" lon="6.4508">
        <ele>1541.4</ele>
        <time>2019-06-18T12:39:23Z</time>
      </trkpt>
      <trkpt lat="45.98195" lon="6.45085">
        <ele>1540.9</ele>
        <time>2019-06-18T12:39:27Z</time>
      </trkpt>
      <trkpt lat="45.98198" lon="6.45091">
        <ele>1540.3</ele>
        <time>2019-06-18T12:39:32Z</time>
      </trkpt>
      <trkpt lat="45.982" lon="6.45098">
        <ele>1539.9</ele>
        <time>2019-06-18T12:39:38Z</time>
      </trkpt>
      <trkpt lat="45.98201" lon="6.45105">
        <ele>1539.6</ele>
        <time>2019-06-18T12:39:45Z</time>
      </trkpt>
      <trkpt lat="45.98201" lon="6.45111">
        <ele>1539.8</ele>
        <time>2019-06-18T12:39:56Z</time>
      </trkpt>
      <trkpt lat="45.98203" lon="6.45118">
        <ele>1539.6</ele>
        <time>2019-06-18T12:40:09Z</time>
      </trkpt>
      <trkpt lat="45.98204" lon="6.45125">
        <ele>1539.3</ele>
        <time>2019-06-18T12:40:14Z</time>
      </trkpt>
      <trkpt lat="45.98207" lon="6.45131">
        <ele>1539.2</ele>
        <time>2019-06-18T12:40:18Z</time>
      </trkpt>
      <trkpt lat="45.98208" lon="6.45138">
        <ele>1539</ele>
        <time>2019-06-18T12:40:23Z</time>
      </trkpt>
      <trkpt lat="45.98209" lon="6.45145">
        <ele>1538.5</ele>
        <time>2019-06-18T12:40:29Z</time>
      </trkpt>
      <trkpt lat="45.98211" lon="6.45151">
        <ele>1537.9</ele>
        <time>2019-06-18T12:40:34Z</time>
      </trkpt>
      <trkpt lat="45.98213" lon="6.45157">
        <ele>1537.3</ele>
        <time>2019-06-18T12:40:39Z</time>
      </trkpt>
      <trkpt lat="45.98217" lon="6.45163">
        <ele>1536.7</ele>
        <time>2019-06-18T12:40:45Z</time>
      </trkpt>
      <trkpt lat="45.9822" lon="6.45167">
        <ele>1536.1</ele>
        <time>2019-06-18T12:40:52Z</time>
      </trkpt>
      <trkpt lat="45.98222" lon="6.45174">
        <ele>1537.8</ele>
        <time>2019-06-18T12:41:18Z</time>
      </trkpt>
      <trkpt lat="45.98224" lon="6.4518">
        <ele>1537.9</ele>
        <time>2019-06-18T12:41:27Z</time>
      </trkpt>
      <trkpt lat="45.98227" lon="6.45186">
        <ele>1537</ele>
        <time>2019-06-18T12:41:48Z</time>
      </trkpt>
      <trkpt lat="45.9823" lon="6.45192">
        <ele>1536.8</ele>
        <time>2019-06-18T12:41:52Z</time>
      </trkpt>
      <trkpt lat="45.98233" lon="6.45198">
        <ele>1536.4</ele>
        <time>2019-06-18T12:41:58Z</time>
      </trkpt>
      <trkpt lat="45.98233" lon="6.45206">
        <ele>1536</ele>
        <time>2019-06-18T12:42:03Z</time>
      </trkpt>
      <trkpt lat="45.98235" lon="6.45212">
        <ele>1535.7</ele>
        <time>2019-06-18T12:42:09Z</time>
      </trkpt>
      <trkpt lat="45.98239" lon="6.45217">
        <ele>1535.3</ele>
        <time>2019-06-18T12:42:15Z</time>
      </trkpt>
      <trkpt lat="45.98242" lon="6.45222">
        <ele>1535.2</ele>
        <time>2019-06-18T12:42:22Z</time>
      </trkpt>
      <trkpt lat="45.98246" lon="6.45227">
        <ele>1535.4</ele>
        <time>2019-06-18T12:42:29Z</time>
      </trkpt>
      <trkpt lat="45.9825" lon="6.45231">
        <ele>1535.5</ele>
        <time>2019-06-18T12:42:35Z</time>
      </trkpt>
      <trkpt lat="45.98254" lon="6.45235">
        <ele>1535.2</ele>
        <time>2019-06-18T12:42:40Z</time>
      </trkpt>
      <trkpt lat="45.98254" lon="6.45242">
        <ele>1532.8</ele>
        <time>2019-06-18T12:43:10Z</time>
      </trkpt>
      <trkpt lat="45.98256" lon="6.45248">
        <ele>1533.5</ele>
        <time>2019-06-18T12:43:22Z</time>
      </trkpt>
      <trkpt lat="45.98256" lon="6.45255">
        <ele>1533.3</ele>
        <time>2019-06-18T12:43:43Z</time>
      </trkpt>
      <trkpt lat="45.98255" lon="6.45261">
        <ele>1533.3</ele>
        <time>2019-06-18T12:43:55Z</time>
      </trkpt>
      <trkpt lat="45.98251" lon="6.45265">
        <ele>1531.8</ele>
        <time>2019-06-18T12:44:31Z</time>
      </trkpt>
      <trkpt lat="45.98256" lon="6.45263">
        <ele>1531.5</ele>
        <time>2019-06-18T12:44:45Z</time>
      </trkpt>
      <trkpt lat="45.98258" lon="6.45257">
        <ele>1531.9</ele>
        <time>2019-06-18T12:44:56Z</time>
      </trkpt>
      <trkpt lat="45.98262" lon="6.45261">
        <ele>1532.3</ele>
        <time>2019-06-18T12:45:08Z</time>
      </trkpt>
      <trkpt lat="45.98263" lon="6.45267">
        <ele>1532.6</ele>
        <time>2019-06-18T12:45:13Z</time>
      </trkpt>
      <trkpt lat="45.98265" lon="6.45273">
        <ele>1532.9</ele>
        <time>2019-06-18T12:45:19Z</time>
      </trkpt>
      <trkpt lat="45.98267" lon="6.4528">
        <ele>1533.3</ele>
        <time>2019-06-18T12:45:29Z</time>
      </trkpt>
      <trkpt lat="45.9827" lon="6.45286">
        <ele>1533.3</ele>
        <time>2019-06-18T12:45:37Z</time>
      </trkpt>
      <trkpt lat="45.98272" lon="6.45292">
        <ele>1533</ele>
        <time>2019-06-18T12:45:43Z</time>
      </trkpt>
      <trkpt lat="45.98275" lon="6.45298">
        <ele>1532.6</ele>
        <time>2019-06-18T12:45:48Z</time>
      </trkpt>
      <trkpt lat="45.98278" lon="6.45304">
        <ele>1532.3</ele>
        <time>2019-06-18T12:45:54Z</time>
      </trkpt>
      <trkpt lat="45.98282" lon="6.45309">
        <ele>1531.9</ele>
        <time>2019-06-18T12:46:00Z</time>
      </trkpt>
      <trkpt lat="45.98285" lon="6.45315">
        <ele>1531.3</ele>
        <time>2019-06-18T12:46:05Z</time>
      </trkpt>
      <trkpt lat="45.98288" lon="6.45319">
        <ele>1530.4</ele>
        <time>2019-06-18T12:46:11Z</time>
      </trkpt>
      <trkpt lat="45.98293" lon="6.45321">
        <ele>1529.6</ele>
        <time>2019-06-18T12:46:17Z</time>
      </trkpt>
      <trkpt lat="45.98297" lon="6.45324">
        <ele>1528.4</ele>
        <time>2019-06-18T12:46:24Z</time>
      </trkpt>
      <trkpt lat="45.98302" lon="6.45329">
        <ele>1527.8</ele>
        <time>2019-06-18T12:46:28Z</time>
      </trkpt>
      <trkpt lat="45.98305" lon="6.45335">
        <ele>1527.1</ele>
        <time>2019-06-18T12:46:33Z</time>
      </trkpt>
      <trkpt lat="45.98309" lon="6.4534">
        <ele>1526.4</ele>
        <time>2019-06-18T12:46:38Z</time>
      </trkpt>
      <trkpt lat="45.9831" lon="6.45348">
        <ele>1525.6</ele>
        <time>2019-06-18T12:46:43Z</time>
      </trkpt>
      <trkpt lat="45.98311" lon="6.45355">
        <ele>1525</ele>
        <time>2019-06-18T12:46:49Z</time>
      </trkpt>
      <trkpt lat="45.98311" lon="6.45362">
        <ele>1524.2</ele>
        <time>2019-06-18T12:46:57Z</time>
      </trkpt>
      <trkpt lat="45.98312" lon="6.45368">
        <ele>1523.7</ele>
        <time>2019-06-18T12:47:04Z</time>
      </trkpt>
      <trkpt lat="45.98313" lon="6.45375">
        <ele>1523.3</ele>
        <time>2019-06-18T12:47:08Z</time>
      </trkpt>
      <trkpt lat="45.98315" lon="6.45382">
        <ele>1522.6</ele>
        <time>2019-06-18T12:47:13Z</time>
      </trkpt>
      <trkpt lat="45.98317" lon="6.45388">
        <ele>1521.9</ele>
        <time>2019-06-18T12:47:17Z</time>
      </trkpt>
      <trkpt lat="45.98319" lon="6.45394">
        <ele>1521.2</ele>
        <time>2019-06-18T12:47:21Z</time>
      </trkpt>
      <trkpt lat="45.98319" lon="6.45401">
        <ele>1520.1</ele>
        <time>2019-06-18T12:47:31Z</time>
      </trkpt>
      <trkpt lat="45.98322" lon="6.45407">
        <ele>1519.3</ele>
        <time>2019-06-18T12:47:37Z</time>
      </trkpt>
      <trkpt lat="45.98324" lon="6.45414">
        <ele>1518.9</ele>
        <time>2019-06-18T12:47:41Z</time>
      </trkpt>
      <trkpt lat="45.98328" lon="6.45419">
        <ele>1518.6</ele>
        <time>2019-06-18T12:47:47Z</time>
      </trkpt>
      <trkpt lat="45.98328" lon="6.45425">
        <ele>1518.4</ele>
        <time>2019-06-18T12:47:56Z</time>
      </trkpt>
      <trkpt lat="45.98329" lon="6.45432">
        <ele>1518.1</ele>
        <time>2019-06-18T12:48:19Z</time>
      </trkpt>
      <trkpt lat="45.9833" lon="6.45437">
        <ele>1518.9</ele>
        <time>2019-06-18T12:48:52Z</time>
      </trkpt>
      <trkpt lat="45.98332" lon="6.45443">
        <ele>1519.5</ele>
        <time>2019-06-18T12:48:57Z</time>
      </trkpt>
      <trkpt lat="45.98333" lon="6.4545">
        <ele>1519.9</ele>
        <time>2019-06-18T12:49:02Z</time>
      </trkpt>
      <trkpt lat="45.98334" lon="6.45466">
        <ele>1520.8</ele>
        <time>2019-06-18T12:49:17Z</time>
      </trkpt>
      <trkpt lat="45.98336" lon="6.45473">
        <ele>1520.8</ele>
        <time>2019-06-18T12:49:24Z</time>
      </trkpt>
      <trkpt lat="45.98338" lon="6.45479">
        <ele>1520.7</ele>
        <time>2019-06-18T12:49:30Z</time>
      </trkpt>
      <trkpt lat="45.98341" lon="6.45485">
        <ele>1520.8</ele>
        <time>2019-06-18T12:49:37Z</time>
      </trkpt>
      <trkpt lat="45.98345" lon="6.4549">
        <ele>1521</ele>
        <time>2019-06-18T12:49:46Z</time>
      </trkpt>
      <trkpt lat="45.98349" lon="6.45494">
        <ele>1521.1</ele>
        <time>2019-06-18T12:49:53Z</time>
      </trkpt>
      <trkpt lat="45.98353" lon="6.45495">
        <ele>1521.2</ele>
        <time>2019-06-18T12:49:57Z</time>
      </trkpt>
      <trkpt lat="45.98358" lon="6.45499">
        <ele>1521.2</ele>
        <time>2019-06-18T12:50:03Z</time>
      </trkpt>
      <trkpt lat="45.98361" lon="6.45504">
        <ele>1521.3</ele>
        <time>2019-06-18T12:50:20Z</time>
      </trkpt>
      <trkpt lat="45.98365" lon="6.45509">
        <ele>1521.3</ele>
        <time>2019-06-18T12:50:27Z</time>
      </trkpt>
      <trkpt lat="45.98369" lon="6.45514">
        <ele>1521.3</ele>
        <time>2019-06-18T12:50:31Z</time>
      </trkpt>
      <trkpt lat="45.98373" lon="6.45517">
        <ele>1521.3</ele>
        <time>2019-06-18T12:50:36Z</time>
      </trkpt>
      <trkpt lat="45.98377" lon="6.45521">
        <ele>1521.4</ele>
        <time>2019-06-18T12:50:40Z</time>
      </trkpt>
      <trkpt lat="45.98381" lon="6.45527">
        <ele>1521.5</ele>
        <time>2019-06-18T12:50:46Z</time>
      </trkpt>
      <trkpt lat="45.98384" lon="6.45533">
        <ele>1521.5</ele>
        <time>2019-06-18T12:50:50Z</time>
      </trkpt>
      <trkpt lat="45.98387" lon="6.45539">
        <ele>1521.3</ele>
        <time>2019-06-18T12:50:54Z</time>
      </trkpt>
      <trkpt lat="45.9839" lon="6.45544">
        <ele>1521</ele>
        <time>2019-06-18T12:50:58Z</time>
      </trkpt>
      <trkpt lat="45.98392" lon="6.45551">
        <ele>1520.5</ele>
        <time>2019-06-18T12:51:03Z</time>
      </trkpt>
      <trkpt lat="45.98395" lon="6.45557">
        <ele>1520.4</ele>
        <time>2019-06-18T12:51:08Z</time>
      </trkpt>
      <trkpt lat="45.98398" lon="6.45563">
        <ele>1520.4</ele>
        <time>2019-06-18T12:51:13Z</time>
      </trkpt>
      <trkpt lat="45.984" lon="6.45569">
        <ele>1520.4</ele>
        <time>2019-06-18T12:51:19Z</time>
      </trkpt>
      <trkpt lat="45.98398" lon="6.45575">
        <ele>1520.5</ele>
        <time>2019-06-18T12:51:27Z</time>
      </trkpt>
      <trkpt lat="45.98395" lon="6.45581">
        <ele>1521.7</ele>
        <time>2019-06-18T12:51:44Z</time>
      </trkpt>
      <trkpt lat="45.98394" lon="6.45588">
        <ele>1521.6</ele>
        <time>2019-06-18T12:51:54Z</time>
      </trkpt>
      <trkpt lat="45.98395" lon="6.45595">
        <ele>1521.5</ele>
        <time>2019-06-18T12:52:01Z</time>
      </trkpt>
      <trkpt lat="45.98398" lon="6.45601">
        <ele>1521</ele>
        <time>2019-06-18T12:52:08Z</time>
      </trkpt>
      <trkpt lat="45.984" lon="6.45606">
        <ele>1520.3</ele>
        <time>2019-06-18T12:52:15Z</time>
      </trkpt>
      <trkpt lat="45.98403" lon="6.45612">
        <ele>1519.6</ele>
        <time>2019-06-18T12:52:22Z</time>
      </trkpt>
      <trkpt lat="45.98406" lon="6.45618">
        <ele>1518.9</ele>
        <time>2019-06-18T12:52:27Z</time>
      </trkpt>
      <trkpt lat="45.9841" lon="6.45623">
        <ele>1518.1</ele>
        <time>2019-06-18T12:52:32Z</time>
      </trkpt>
      <trkpt lat="45.98417" lon="6.45634">
        <ele>1516</ele>
        <time>2019-06-18T12:56:30Z</time>
      </trkpt>
      <trkpt lat="45.98418" lon="6.45641">
        <ele>1515.7</ele>
        <time>2019-06-18T12:56:42Z</time>
      </trkpt>
      <trkpt lat="45.98416" lon="6.45647">
        <ele>1515.6</ele>
        <time>2019-06-18T12:56:52Z</time>
      </trkpt>
      <trkpt lat="45.98413" lon="6.45652">
        <ele>1516.2</ele>
        <time>2019-06-18T12:57:01Z</time>
      </trkpt>
      <trkpt lat="45.98409" lon="6.45656">
        <ele>1516.4</ele>
        <time>2019-06-18T12:57:09Z</time>
      </trkpt>
      <trkpt lat="45.98406" lon="6.45662">
        <ele>1515.2</ele>
        <time>2019-06-18T12:57:26Z</time>
      </trkpt>
      <trkpt lat="45.98405" lon="6.45669">
        <ele>1514.2</ele>
        <time>2019-06-18T12:57:36Z</time>
      </trkpt>
      <trkpt lat="45.98403" lon="6.45676">
        <ele>1512.9</ele>
        <time>2019-06-18T12:57:43Z</time>
      </trkpt>
      <trkpt lat="45.98402" lon="6.45691">
        <ele>1507</ele>
        <time>2019-06-18T12:58:18Z</time>
      </trkpt>
      <trkpt lat="45.98403" lon="6.45697">
        <ele>1507</ele>
        <time>2019-06-18T12:58:22Z</time>
      </trkpt>
      <trkpt lat="45.98399" lon="6.45699">
        <ele>1507.1</ele>
        <time>2019-06-18T13:00:17Z</time>
      </trkpt>
      <trkpt lat="45.98398" lon="6.45706">
        <ele>1505.8</ele>
        <time>2019-06-18T13:00:38Z</time>
      </trkpt>
      <trkpt lat="45.98399" lon="6.45712">
        <ele>1504.4</ele>
        <time>2019-06-18T13:00:46Z</time>
      </trkpt>
      <trkpt lat="45.984" lon="6.45725">
        <ele>1502.7</ele>
        <time>2019-06-18T13:01:58Z</time>
      </trkpt>
      <trkpt lat="45.984" lon="6.45732">
        <ele>1502.7</ele>
        <time>2019-06-18T13:02:01Z</time>
      </trkpt>
      <trkpt lat="45.98398" lon="6.45739">
        <ele>1502.7</ele>
        <time>2019-06-18T13:02:05Z</time>
      </trkpt>
      <trkpt lat="45.98393" lon="6.4574">
        <ele>1502.5</ele>
        <time>2019-06-18T13:02:10Z</time>
      </trkpt>
      <trkpt lat="45.98389" lon="6.45743">
        <ele>1502.2</ele>
        <time>2019-06-18T13:02:19Z</time>
      </trkpt>
      <trkpt lat="45.98388" lon="6.45749">
        <ele>1501.1</ele>
        <time>2019-06-18T13:02:33Z</time>
      </trkpt>
      <trkpt lat="45.98391" lon="6.45754">
        <ele>1499.6</ele>
        <time>2019-06-18T13:02:55Z</time>
      </trkpt>
      <trkpt lat="45.98395" lon="6.45759">
        <ele>1494.8</ele>
        <time>2019-06-18T13:03:46Z</time>
      </trkpt>
      <trkpt lat="45.98399" lon="6.45763">
        <ele>1493.3</ele>
        <time>2019-06-18T13:03:52Z</time>
      </trkpt>
      <trkpt lat="45.98402" lon="6.45767">
        <ele>1492.3</ele>
        <time>2019-06-18T13:03:56Z</time>
      </trkpt>
      <trkpt lat="45.98407" lon="6.45771">
        <ele>1490.7</ele>
        <time>2019-06-18T13:04:02Z</time>
      </trkpt>
      <trkpt lat="45.98411" lon="6.45775">
        <ele>1489.1</ele>
        <time>2019-06-18T13:04:07Z</time>
      </trkpt>
      <trkpt lat="45.98415" lon="6.45778">
        <ele>1487.8</ele>
        <time>2019-06-18T13:04:12Z</time>
      </trkpt>
      <trkpt lat="45.9842" lon="6.4578">
        <ele>1486.9</ele>
        <time>2019-06-18T13:04:16Z</time>
      </trkpt>
      <trkpt lat="45.98424" lon="6.45783">
        <ele>1486.1</ele>
        <time>2019-06-18T13:04:20Z</time>
      </trkpt>
      <trkpt lat="45.98428" lon="6.45786">
        <ele>1484.6</ele>
        <time>2019-06-18T13:04:33Z</time>
      </trkpt>
      <trkpt lat="45.98432" lon="6.45789">
        <ele>1484.8</ele>
        <time>2019-06-18T13:04:39Z</time>
      </trkpt>
      <trkpt lat="45.98437" lon="6.45792">
        <ele>1485.1</ele>
        <time>2019-06-18T13:04:43Z</time>
      </trkpt>
      <trkpt lat="45.98441" lon="6.45793">
        <ele>1485.4</ele>
        <time>2019-06-18T13:04:48Z</time>
      </trkpt>
      <trkpt lat="45.98448" lon="6.458">
        <ele>1485.3</ele>
        <time>2019-06-18T13:05:09Z</time>
      </trkpt>
      <trkpt lat="45.98452" lon="6.45804">
        <ele>1485</ele>
        <time>2019-06-18T13:05:17Z</time>
      </trkpt>
      <trkpt lat="45.98451" lon="6.4581">
        <ele>1486.2</ele>
        <time>2019-06-18T13:05:31Z</time>
      </trkpt>
      <trkpt lat="45.98443" lon="6.45819">
        <ele>1486.6</ele>
        <time>2019-06-18T13:06:03Z</time>
      </trkpt>
      <trkpt lat="45.98439" lon="6.45823">
        <ele>1486.9</ele>
        <time>2019-06-18T13:06:06Z</time>
      </trkpt>
      <trkpt lat="45.98436" lon="6.45828">
        <ele>1487.1</ele>
        <time>2019-06-18T13:06:10Z</time>
      </trkpt>
      <trkpt lat="45.98433" lon="6.45834">
        <ele>1486.8</ele>
        <time>2019-06-18T13:06:20Z</time>
      </trkpt>
      <trkpt lat="45.98434" lon="6.45827">
        <ele>1485.1</ele>
        <time>2019-06-18T13:06:36Z</time>
      </trkpt>
      <trkpt lat="45.98437" lon="6.45837">
        <ele>1480.6</ele>
        <time>2019-06-18T13:07:20Z</time>
      </trkpt>
      <trkpt lat="45.98441" lon="6.45842">
        <ele>1480.4</ele>
        <time>2019-06-18T13:07:24Z</time>
      </trkpt>
      <trkpt lat="45.98446" lon="6.45846">
        <ele>1480.1</ele>
        <time>2019-06-18T13:07:28Z</time>
      </trkpt>
      <trkpt lat="45.98449" lon="6.45851">
        <ele>1479.5</ele>
        <time>2019-06-18T13:07:34Z</time>
      </trkpt>
      <trkpt lat="45.9845" lon="6.45858">
        <ele>1479.1</ele>
        <time>2019-06-18T13:07:38Z</time>
      </trkpt>
      <trkpt lat="45.9845" lon="6.45865">
        <ele>1478.4</ele>
        <time>2019-06-18T13:07:42Z</time>
      </trkpt>
      <trkpt lat="45.98451" lon="6.45872">
        <ele>1477.8</ele>
        <time>2019-06-18T13:07:46Z</time>
      </trkpt>
      <trkpt lat="45.98451" lon="6.45878">
        <ele>1477.2</ele>
        <time>2019-06-18T13:07:51Z</time>
      </trkpt>
      <trkpt lat="45.98451" lon="6.45886">
        <ele>1476.8</ele>
        <time>2019-06-18T13:07:57Z</time>
      </trkpt>
      <trkpt lat="45.98447" lon="6.45891">
        <ele>1476.8</ele>
        <time>2019-06-18T13:08:02Z</time>
      </trkpt>
      <trkpt lat="45.98444" lon="6.45895">
        <ele>1476.8</ele>
        <time>2019-06-18T13:08:10Z</time>
      </trkpt>
      <trkpt lat="45.98442" lon="6.45901">
        <ele>1476.5</ele>
        <time>2019-06-18T13:08:19Z</time>
      </trkpt>
      <trkpt lat="45.98439" lon="6.45906">
        <ele>1475.6</ele>
        <time>2019-06-18T13:08:32Z</time>
      </trkpt>
      <trkpt lat="45.98436" lon="6.45911">
        <ele>1475.5</ele>
        <time>2019-06-18T13:08:47Z</time>
      </trkpt>
      <trkpt lat="45.98434" lon="6.45918">
        <ele>1475.4</ele>
        <time>2019-06-18T13:08:55Z</time>
      </trkpt>
      <trkpt lat="45.98429" lon="6.45913">
        <ele>1474.8</ele>
        <time>2019-06-18T13:09:14Z</time>
      </trkpt>
      <trkpt lat="45.98424" lon="6.45912">
        <ele>1474.4</ele>
        <time>2019-06-18T13:09:23Z</time>
      </trkpt>
      <trkpt lat="45.98425" lon="6.45919">
        <ele>1473.3</ele>
        <time>2019-06-18T13:09:36Z</time>
      </trkpt>
      <trkpt lat="45.98429" lon="6.45923">
        <ele>1472.4</ele>
        <time>2019-06-18T13:09:40Z</time>
      </trkpt>
      <trkpt lat="45.98431" lon="6.4593">
        <ele>1471.1</ele>
        <time>2019-06-18T13:09:46Z</time>
      </trkpt>
      <trkpt lat="45.98435" lon="6.45935">
        <ele>1469.7</ele>
        <time>2019-06-18T13:09:53Z</time>
      </trkpt>
      <trkpt lat="45.98439" lon="6.4594">
        <ele>1469.2</ele>
        <time>2019-06-18T13:09:56Z</time>
      </trkpt>
      <trkpt lat="45.98442" lon="6.45944">
        <ele>1468.8</ele>
        <time>2019-06-18T13:10:01Z</time>
      </trkpt>
      <trkpt lat="45.98444" lon="6.45951">
        <ele>1468.7</ele>
        <time>2019-06-18T13:10:06Z</time>
      </trkpt>
      <trkpt lat="45.98446" lon="6.45957">
        <ele>1468.7</ele>
        <time>2019-06-18T13:10:10Z</time>
      </trkpt>
      <trkpt lat="45.98448" lon="6.45963">
        <ele>1469.1</ele>
        <time>2019-06-18T13:10:15Z</time>
      </trkpt>
      <trkpt lat="45.9845" lon="6.45969">
        <ele>1469.3</ele>
        <time>2019-06-18T13:10:18Z</time>
      </trkpt>
      <trkpt lat="45.98452" lon="6.45975">
        <ele>1469.3</ele>
        <time>2019-06-18T13:10:23Z</time>
      </trkpt>
      <trkpt lat="45.98453" lon="6.45983">
        <ele>1469.2</ele>
        <time>2019-06-18T13:10:30Z</time>
      </trkpt>
      <trkpt lat="45.98451" lon="6.45988">
        <ele>1469</ele>
        <time>2019-06-18T13:10:46Z</time>
      </trkpt>
      <trkpt lat="45.98454" lon="6.45995">
        <ele>1468.8</ele>
        <time>2019-06-18T13:10:50Z</time>
      </trkpt>
      <trkpt lat="45.98457" lon="6.46001">
        <ele>1468.4</ele>
        <time>2019-06-18T13:10:55Z</time>
      </trkpt>
      <trkpt lat="45.9846" lon="6.46007">
        <ele>1467.7</ele>
        <time>2019-06-18T13:11:01Z</time>
      </trkpt>
      <trkpt lat="45.98461" lon="6.46014">
        <ele>1467.1</ele>
        <time>2019-06-18T13:11:07Z</time>
      </trkpt>
      <trkpt lat="45.98461" lon="6.46022">
        <ele>1466.9</ele>
        <time>2019-06-18T13:11:12Z</time>
      </trkpt>
      <trkpt lat="45.98456" lon="6.46023">
        <ele>1466.1</ele>
        <time>2019-06-18T13:11:29Z</time>
      </trkpt>
      <trkpt lat="45.98458" lon="6.46029">
        <ele>1464.8</ele>
        <time>2019-06-18T13:11:59Z</time>
      </trkpt>
      <trkpt lat="45.9846" lon="6.46035">
        <ele>1464.3</ele>
        <time>2019-06-18T13:12:08Z</time>
      </trkpt>
      <trkpt lat="45.98464" lon="6.46041">
        <ele>1463.7</ele>
        <time>2019-06-18T13:12:13Z</time>
      </trkpt>
      <trkpt lat="45.98467" lon="6.46046">
        <ele>1463.5</ele>
        <time>2019-06-18T13:12:16Z</time>
      </trkpt>
      <trkpt lat="45.98471" lon="6.46052">
        <ele>1463.2</ele>
        <time>2019-06-18T13:12:19Z</time>
      </trkpt>
      <trkpt lat="45.98475" lon="6.46057">
        <ele>1462.9</ele>
        <time>2019-06-18T13:12:22Z</time>
      </trkpt>
      <trkpt lat="45.98479" lon="6.46061">
        <ele>1462.6</ele>
        <time>2019-06-18T13:12:25Z</time>
      </trkpt>
      <trkpt lat="45.98483" lon="6.46066">
        <ele>1461.7</ele>
        <time>2019-06-18T13:12:31Z</time>
      </trkpt>
      <trkpt lat="45.98486" lon="6.46073">
        <ele>1460.4</ele>
        <time>2019-06-18T13:12:38Z</time>
      </trkpt>
      <trkpt lat="45.98488" lon="6.46079">
        <ele>1459.9</ele>
        <time>2019-06-18T13:12:42Z</time>
      </trkpt>
      <trkpt lat="45.98491" lon="6.46085">
        <ele>1459.3</ele>
        <time>2019-06-18T13:12:47Z</time>
      </trkpt>
      <trkpt lat="45.98493" lon="6.46092">
        <ele>1458.6</ele>
        <time>2019-06-18T13:12:53Z</time>
      </trkpt>
      <trkpt lat="45.98496" lon="6.46097">
        <ele>1457.9</ele>
        <time>2019-06-18T13:13:00Z</time>
      </trkpt>
      <trkpt lat="45.98497" lon="6.46107">
        <ele>1456.8</ele>
        <time>2019-06-18T13:13:34Z</time>
      </trkpt>
      <trkpt lat="45.985" lon="6.46111">
        <ele>1456.8</ele>
        <time>2019-06-18T13:13:42Z</time>
      </trkpt>
      <trkpt lat="45.98504" lon="6.46114">
        <ele>1456.4</ele>
        <time>2019-06-18T13:13:51Z</time>
      </trkpt>
      <trkpt lat="45.98507" lon="6.4612">
        <ele>1454.8</ele>
        <time>2019-06-18T13:14:04Z</time>
      </trkpt>
      <trkpt lat="45.98504" lon="6.46125">
        <ele>1454.2</ele>
        <time>2019-06-18T13:14:14Z</time>
      </trkpt>
      <trkpt lat="45.98501" lon="6.4613">
        <ele>1453.8</ele>
        <time>2019-06-18T13:14:27Z</time>
      </trkpt>
      <trkpt lat="45.98502" lon="6.46128">
        <ele>1452.7</ele>
        <time>2019-06-18T13:14:45Z</time>
      </trkpt>
      <trkpt lat="45.98498" lon="6.46136">
        <ele>1450.1</ele>
        <time>2019-06-18T13:15:54Z</time>
      </trkpt>
      <trkpt lat="45.985" lon="6.46143">
        <ele>1450.5</ele>
        <time>2019-06-18T13:15:59Z</time>
      </trkpt>
      <trkpt lat="45.98504" lon="6.46153">
        <ele>1449</ele>
        <time>2019-06-18T13:17:02Z</time>
      </trkpt>
      <trkpt lat="45.98506" lon="6.46164">
        <ele>1448.8</ele>
        <time>2019-06-18T13:17:35Z</time>
      </trkpt>
      <trkpt lat="45.98507" lon="6.46171">
        <ele>1448.6</ele>
        <time>2019-06-18T13:17:38Z</time>
      </trkpt>
      <trkpt lat="45.98507" lon="6.46178">
        <ele>1448.3</ele>
        <time>2019-06-18T13:17:42Z</time>
      </trkpt>
      <trkpt lat="45.98508" lon="6.46187">
        <ele>1447.9</ele>
        <time>2019-06-18T13:17:46Z</time>
      </trkpt>
      <trkpt lat="45.98511" lon="6.46193">
        <ele>1447.6</ele>
        <time>2019-06-18T13:17:50Z</time>
      </trkpt>
      <trkpt lat="45.98514" lon="6.46199">
        <ele>1447.4</ele>
        <time>2019-06-18T13:17:55Z</time>
      </trkpt>
      <trkpt lat="45.98516" lon="6.46212">
        <ele>1446.3</ele>
        <time>2019-06-18T13:18:08Z</time>
      </trkpt>
      <trkpt lat="45.98519" lon="6.46218">
        <ele>1445.3</ele>
        <time>2019-06-18T13:18:13Z</time>
      </trkpt>
      <trkpt lat="45.98522" lon="6.46222">
        <ele>1444.4</ele>
        <time>2019-06-18T13:18:18Z</time>
      </trkpt>
      <trkpt lat="45.98526" lon="6.46226">
        <ele>1443.8</ele>
        <time>2019-06-18T13:18:32Z</time>
      </trkpt>
      <trkpt lat="45.9853" lon="6.4623">
        <ele>1444</ele>
        <time>2019-06-18T13:18:37Z</time>
      </trkpt>
      <trkpt lat="45.98528" lon="6.46236">
        <ele>1444.3</ele>
        <time>2019-06-18T13:18:43Z</time>
      </trkpt>
      <trkpt lat="45.98523" lon="6.46235">
        <ele>1444.5</ele>
        <time>2019-06-18T13:18:46Z</time>
      </trkpt>
      <trkpt lat="45.98518" lon="6.46232">
        <ele>1444.7</ele>
        <time>2019-06-18T13:18:49Z</time>
      </trkpt>
      <trkpt lat="45.98513" lon="6.4623">
        <ele>1444.8</ele>
        <time>2019-06-18T13:18:53Z</time>
      </trkpt>
      <trkpt lat="45.98509" lon="6.46229">
        <ele>1444.6</ele>
        <time>2019-06-18T13:18:57Z</time>
      </trkpt>
      <trkpt lat="45.98504" lon="6.46231">
        <ele>1443.9</ele>
        <time>2019-06-18T13:19:02Z</time>
      </trkpt>
      <trkpt lat="45.98501" lon="6.46238">
        <ele>1443.3</ele>
        <time>2019-06-18T13:19:07Z</time>
      </trkpt>
      <trkpt lat="45.98497" lon="6.46242">
        <ele>1442.9</ele>
        <time>2019-06-18T13:19:11Z</time>
      </trkpt>
      <trkpt lat="45.98493" lon="6.46246">
        <ele>1442.3</ele>
        <time>2019-06-18T13:19:16Z</time>
      </trkpt>
      <trkpt lat="45.98488" lon="6.4625">
        <ele>1441.2</ele>
        <time>2019-06-18T13:19:23Z</time>
      </trkpt>
      <trkpt lat="45.98484" lon="6.46253">
        <ele>1440.6</ele>
        <time>2019-06-18T13:19:27Z</time>
      </trkpt>
      <trkpt lat="45.98478" lon="6.46255">
        <ele>1440</ele>
        <time>2019-06-18T13:19:30Z</time>
      </trkpt>
      <trkpt lat="45.98474" lon="6.46258">
        <ele>1439.4</ele>
        <time>2019-06-18T13:19:34Z</time>
      </trkpt>
      <trkpt lat="45.98471" lon="6.46263">
        <ele>1438</ele>
        <time>2019-06-18T13:19:42Z</time>
      </trkpt>
      <trkpt lat="45.98466" lon="6.46266">
        <ele>1436.1</ele>
        <time>2019-06-18T13:19:51Z</time>
      </trkpt>
      <trkpt lat="45.98461" lon="6.46267">
        <ele>1435.2</ele>
        <time>2019-06-18T13:19:55Z</time>
      </trkpt>
      <trkpt lat="45.98456" lon="6.46268">
        <ele>1434.2</ele>
        <time>2019-06-18T13:19:59Z</time>
      </trkpt>
      <trkpt lat="45.9845" lon="6.46269">
        <ele>1433.3</ele>
        <time>2019-06-18T13:20:03Z</time>
      </trkpt>
      <trkpt lat="45.98446" lon="6.4627">
        <ele>1432.6</ele>
        <time>2019-06-18T13:20:08Z</time>
      </trkpt>
      <trkpt lat="45.98441" lon="6.46271">
        <ele>1431.9</ele>
        <time>2019-06-18T13:20:16Z</time>
      </trkpt>
      <trkpt lat="45.98436" lon="6.46273">
        <ele>1431.6</ele>
        <time>2019-06-18T13:20:20Z</time>
      </trkpt>
      <trkpt lat="45.98432" lon="6.46276">
        <ele>1431.1</ele>
        <time>2019-06-18T13:20:25Z</time>
      </trkpt>
      <trkpt lat="45.98427" lon="6.46278">
        <ele>1430.6</ele>
        <time>2019-06-18T13:20:31Z</time>
      </trkpt>
      <trkpt lat="45.98423" lon="6.4628">
        <ele>1430.2</ele>
        <time>2019-06-18T13:20:35Z</time>
      </trkpt>
      <trkpt lat="45.98418" lon="6.46282">
        <ele>1429.8</ele>
        <time>2019-06-18T13:20:42Z</time>
      </trkpt>
      <trkpt lat="45.98413" lon="6.46282">
        <ele>1429.2</ele>
        <time>2019-06-18T13:20:48Z</time>
      </trkpt>
      <trkpt lat="45.98409" lon="6.46282">
        <ele>1428.2</ele>
        <time>2019-06-18T13:20:56Z</time>
      </trkpt>
      <trkpt lat="45.98404" lon="6.46284">
        <ele>1426.8</ele>
        <time>2019-06-18T13:21:03Z</time>
      </trkpt>
      <trkpt lat="45.98398" lon="6.46283">
        <ele>1425</ele>
        <time>2019-06-18T13:21:10Z</time>
      </trkpt>
      <trkpt lat="45.98393" lon="6.46282">
        <ele>1423.7</ele>
        <time>2019-06-18T13:21:15Z</time>
      </trkpt>
      <trkpt lat="45.98388" lon="6.46283">
        <ele>1422.4</ele>
        <time>2019-06-18T13:21:21Z</time>
      </trkpt>
      <trkpt lat="45.98383" lon="6.46284">
        <ele>1421.2</ele>
        <time>2019-06-18T13:21:27Z</time>
      </trkpt>
      <trkpt lat="45.98377" lon="6.46286">
        <ele>1420.3</ele>
        <time>2019-06-18T13:21:31Z</time>
      </trkpt>
      <trkpt lat="45.98371" lon="6.4629">
        <ele>1420.1</ele>
        <time>2019-06-18T13:21:33Z</time>
      </trkpt>
      <trkpt lat="45.98366" lon="6.46294">
        <ele>1420</ele>
        <time>2019-06-18T13:21:35Z</time>
      </trkpt>
      <trkpt lat="45.98362" lon="6.46298">
        <ele>1420.1</ele>
        <time>2019-06-18T13:21:37Z</time>
      </trkpt>
      <trkpt lat="45.98356" lon="6.46302">
        <ele>1420.3</ele>
        <time>2019-06-18T13:21:40Z</time>
      </trkpt>
      <trkpt lat="45.98351" lon="6.46304">
        <ele>1420.9</ele>
        <time>2019-06-18T13:21:44Z</time>
      </trkpt>
      <trkpt lat="45.98346" lon="6.46301">
        <ele>1422.1</ele>
        <time>2019-06-18T13:21:50Z</time>
      </trkpt>
      <trkpt lat="45.98342" lon="6.46299">
        <ele>1424.8</ele>
        <time>2019-06-18T13:22:02Z</time>
      </trkpt>
      <trkpt lat="45.98338" lon="6.46294">
        <ele>1425.7</ele>
        <time>2019-06-18T13:22:16Z</time>
      </trkpt>
      <trkpt lat="45.98334" lon="6.46291">
        <ele>1425.8</ele>
        <time>2019-06-18T13:22:24Z</time>
      </trkpt>
      <trkpt lat="45.98332" lon="6.46297">
        <ele>1425.5</ele>
        <time>2019-06-18T13:22:38Z</time>
      </trkpt>
      <trkpt lat="45.98331" lon="6.46304">
        <ele>1425.3</ele>
        <time>2019-06-18T13:22:52Z</time>
      </trkpt>
      <trkpt lat="45.98322" lon="6.46308">
        <ele>1425.3</ele>
        <time>2019-06-18T13:23:10Z</time>
      </trkpt>
      <trkpt lat="45.98317" lon="6.46308">
        <ele>1425.7</ele>
        <time>2019-06-18T13:23:20Z</time>
      </trkpt>
      <trkpt lat="45.98314" lon="6.46303">
        <ele>1429.3</ele>
        <time>2019-06-18T13:23:52Z</time>
      </trkpt>
      <trkpt lat="45.9831" lon="6.463">
        <ele>1430</ele>
        <time>2019-06-18T13:24:01Z</time>
      </trkpt>
      <trkpt lat="45.98305" lon="6.46299">
        <ele>1431.7</ele>
        <time>2019-06-18T13:24:18Z</time>
      </trkpt>
      <trkpt lat="45.983" lon="6.46296">
        <ele>1432.4</ele>
        <time>2019-06-18T13:24:23Z</time>
      </trkpt>
      <trkpt lat="45.98295" lon="6.46292">
        <ele>1433.5</ele>
        <time>2019-06-18T13:24:29Z</time>
      </trkpt>
      <trkpt lat="45.9829" lon="6.46292">
        <ele>1435.2</ele>
        <time>2019-06-18T13:24:41Z</time>
      </trkpt>
      <trkpt lat="45.98286" lon="6.4629">
        <ele>1434</ele>
        <time>2019-06-18T13:24:54Z</time>
      </trkpt>
      <trkpt lat="45.98281" lon="6.46292">
        <ele>1433.1</ele>
        <time>2019-06-18T13:25:02Z</time>
      </trkpt>
      <trkpt lat="45.98277" lon="6.46294">
        <ele>1432.6</ele>
        <time>2019-06-18T13:25:15Z</time>
      </trkpt>
      <trkpt lat="45.98274" lon="6.46299">
        <ele>1432.3</ele>
        <time>2019-06-18T13:25:22Z</time>
      </trkpt>
      <trkpt lat="45.98271" lon="6.46304">
        <ele>1429.4</ele>
        <time>2019-06-18T13:25:36Z</time>
      </trkpt>
      <trkpt lat="45.98267" lon="6.46301">
        <ele>1427.1</ele>
        <time>2019-06-18T13:25:46Z</time>
      </trkpt>
      <trkpt lat="45.98264" lon="6.46297">
        <ele>1421.9</ele>
        <time>2019-06-18T13:26:08Z</time>
      </trkpt>
      <trkpt lat="45.9826" lon="6.463">
        <ele>1421.3</ele>
        <time>2019-06-18T13:26:12Z</time>
      </trkpt>
      <trkpt lat="45.98255" lon="6.46305">
        <ele>1421.1</ele>
        <time>2019-06-18T13:26:16Z</time>
      </trkpt>
      <trkpt lat="45.9825" lon="6.46308">
        <ele>1421.3</ele>
        <time>2019-06-18T13:26:22Z</time>
      </trkpt>
      <trkpt lat="45.98246" lon="6.46309">
        <ele>1421.6</ele>
        <time>2019-06-18T13:26:25Z</time>
      </trkpt>
      <trkpt lat="45.98241" lon="6.4631">
        <ele>1422.5</ele>
        <time>2019-06-18T13:26:32Z</time>
      </trkpt>
      <trkpt lat="45.98236" lon="6.46311">
        <ele>1423.1</ele>
        <time>2019-06-18T13:26:46Z</time>
      </trkpt>
      <trkpt lat="45.98225" lon="6.46315">
        <ele>1423.2</ele>
        <time>2019-06-18T13:27:16Z</time>
      </trkpt>
      <trkpt lat="45.98221" lon="6.46317">
        <ele>1423.6</ele>
        <time>2019-06-18T13:27:28Z</time>
      </trkpt>
      <trkpt lat="45.98216" lon="6.46321">
        <ele>1424</ele>
        <time>2019-06-18T13:27:32Z</time>
      </trkpt>
      <trkpt lat="45.98212" lon="6.46325">
        <ele>1424.5</ele>
        <time>2019-06-18T13:27:36Z</time>
      </trkpt>
      <trkpt lat="45.98209" lon="6.4633">
        <ele>1425.1</ele>
        <time>2019-06-18T13:27:42Z</time>
      </trkpt>
      <trkpt lat="45.98205" lon="6.46332">
        <ele>1425.2</ele>
        <time>2019-06-18T13:27:51Z</time>
      </trkpt>
      <trkpt lat="45.982" lon="6.46333">
        <ele>1424.8</ele>
        <time>2019-06-18T13:27:57Z</time>
      </trkpt>
      <trkpt lat="45.98196" lon="6.46332">
        <ele>1424.1</ele>
        <time>2019-06-18T13:28:04Z</time>
      </trkpt>
      <trkpt lat="45.98191" lon="6.46332">
        <ele>1422.6</ele>
        <time>2019-06-18T13:28:12Z</time>
      </trkpt>
      <trkpt lat="45.98186" lon="6.46334">
        <ele>1421.1</ele>
        <time>2019-06-18T13:28:19Z</time>
      </trkpt>
      <trkpt lat="45.98177" lon="6.46343">
        <ele>1415.5</ele>
        <time>2019-06-18T13:28:41Z</time>
      </trkpt>
      <trkpt lat="45.98173" lon="6.46345">
        <ele>1414.6</ele>
        <time>2019-06-18T13:28:49Z</time>
      </trkpt>
      <trkpt lat="45.98168" lon="6.46349">
        <ele>1414.3</ele>
        <time>2019-06-18T13:28:53Z</time>
      </trkpt>
      <trkpt lat="45.98163" lon="6.46353">
        <ele>1414.3</ele>
        <time>2019-06-18T13:28:57Z</time>
      </trkpt>
      <trkpt lat="45.98159" lon="6.46358">
        <ele>1414.3</ele>
        <time>2019-06-18T13:29:00Z</time>
      </trkpt>
      <trkpt lat="45.98153" lon="6.4636">
        <ele>1414.5</ele>
        <time>2019-06-18T13:29:03Z</time>
      </trkpt>
      <trkpt lat="45.98148" lon="6.46363">
        <ele>1414.7</ele>
        <time>2019-06-18T13:29:07Z</time>
      </trkpt>
      <trkpt lat="45.98144" lon="6.46366">
        <ele>1414.9</ele>
        <time>2019-06-18T13:29:13Z</time>
      </trkpt>
      <trkpt lat="45.98139" lon="6.46367">
        <ele>1415.6</ele>
        <time>2019-06-18T13:29:21Z</time>
      </trkpt>
      <trkpt lat="45.98133" lon="6.46367">
        <ele>1416.2</ele>
        <time>2019-06-18T13:29:27Z</time>
      </trkpt>
      <trkpt lat="45.98123" lon="6.46368">
        <ele>1416.6</ele>
        <time>2019-06-18T13:29:44Z</time>
      </trkpt>
      <trkpt lat="45.98119" lon="6.46373">
        <ele>1415.9</ele>
        <time>2019-06-18T13:29:50Z</time>
      </trkpt>
      <trkpt lat="45.98115" lon="6.4638">
        <ele>1415.5</ele>
        <time>2019-06-18T13:29:54Z</time>
      </trkpt>
      <trkpt lat="45.98112" lon="6.46386">
        <ele>1415.3</ele>
        <time>2019-06-18T13:29:57Z</time>
      </trkpt>
      <trkpt lat="45.98108" lon="6.46392">
        <ele>1415.1</ele>
        <time>2019-06-18T13:30:00Z</time>
      </trkpt>
      <trkpt lat="45.98105" lon="6.46397">
        <ele>1415.2</ele>
        <time>2019-06-18T13:30:03Z</time>
      </trkpt>
      <trkpt lat="45.98095" lon="6.46406">
        <ele>1416.7</ele>
        <time>2019-06-18T13:30:16Z</time>
      </trkpt>
      <trkpt lat="45.9809" lon="6.46408">
        <ele>1416.8</ele>
        <time>2019-06-18T13:30:23Z</time>
      </trkpt>
      <trkpt lat="45.98085" lon="6.4641">
        <ele>1416.8</ele>
        <time>2019-06-18T13:30:46Z</time>
      </trkpt>
      <trkpt lat="45.98074" lon="6.46418">
        <ele>1420.6</ele>
        <time>2019-06-18T13:32:14Z</time>
      </trkpt>
      <trkpt lat="45.98069" lon="6.4642">
        <ele>1421.4</ele>
        <time>2019-06-18T13:32:19Z</time>
      </trkpt>
      <trkpt lat="45.98058" lon="6.46424">
        <ele>1422.3</ele>
        <time>2019-06-18T13:33:05Z</time>
      </trkpt>
      <trkpt lat="45.98053" lon="6.46426">
        <ele>1422.5</ele>
        <time>2019-06-18T13:33:09Z</time>
      </trkpt>
      <trkpt lat="45.98048" lon="6.46427">
        <ele>1422.8</ele>
        <time>2019-06-18T13:33:13Z</time>
      </trkpt>
      <trkpt lat="45.98043" lon="6.46426">
        <ele>1423.1</ele>
        <time>2019-06-18T13:33:16Z</time>
      </trkpt>
      <trkpt lat="45.98039" lon="6.46429">
        <ele>1423.4</ele>
        <time>2019-06-18T13:33:24Z</time>
      </trkpt>
      <trkpt lat="45.98034" lon="6.4643">
        <ele>1423.2</ele>
        <time>2019-06-18T13:33:29Z</time>
      </trkpt>
      <trkpt lat="45.98029" lon="6.4643">
        <ele>1422.6</ele>
        <time>2019-06-18T13:33:33Z</time>
      </trkpt>
      <trkpt lat="45.98025" lon="6.46425">
        <ele>1421.1</ele>
        <time>2019-06-18T13:33:41Z</time>
      </trkpt>
      <trkpt lat="45.98021" lon="6.46422">
        <ele>1420.2</ele>
        <time>2019-06-18T13:33:46Z</time>
      </trkpt>
      <trkpt lat="45.98015" lon="6.46419">
        <ele>1419.4</ele>
        <time>2019-06-18T13:33:51Z</time>
      </trkpt>
      <trkpt lat="45.98011" lon="6.46418">
        <ele>1418.6</ele>
        <time>2019-06-18T13:33:55Z</time>
      </trkpt>
      <trkpt lat="45.98006" lon="6.46418">
        <ele>1416.4</ele>
        <time>2019-06-18T13:34:03Z</time>
      </trkpt>
      <trkpt lat="45.98001" lon="6.46419">
        <ele>1414</ele>
        <time>2019-06-18T13:34:12Z</time>
      </trkpt>
      <trkpt lat="45.97996" lon="6.4642">
        <ele>1412.3</ele>
        <time>2019-06-18T13:34:18Z</time>
      </trkpt>
      <trkpt lat="45.97992" lon="6.46422">
        <ele>1410.7</ele>
        <time>2019-06-18T13:34:23Z</time>
      </trkpt>
      <trkpt lat="45.97987" lon="6.46424">
        <ele>1409.1</ele>
        <time>2019-06-18T13:34:28Z</time>
      </trkpt>
      <trkpt lat="45.97982" lon="6.46425">
        <ele>1407.8</ele>
        <time>2019-06-18T13:34:33Z</time>
      </trkpt>
      <trkpt lat="45.97977" lon="6.46426">
        <ele>1406.4</ele>
        <time>2019-06-18T13:34:38Z</time>
      </trkpt>
      <trkpt lat="45.97972" lon="6.46427">
        <ele>1405.2</ele>
        <time>2019-06-18T13:34:42Z</time>
      </trkpt>
      <trkpt lat="45.97967" lon="6.46429">
        <ele>1403.5</ele>
        <time>2019-06-18T13:34:47Z</time>
      </trkpt>
      <trkpt lat="45.97963" lon="6.46434">
        <ele>1402.1</ele>
        <time>2019-06-18T13:34:51Z</time>
      </trkpt>
      <trkpt lat="45.9796" lon="6.46439">
        <ele>1401.5</ele>
        <time>2019-06-18T13:34:53Z</time>
      </trkpt>
      <trkpt lat="45.97955" lon="6.46445">
        <ele>1400.7</ele>
        <time>2019-06-18T13:34:56Z</time>
      </trkpt>
      <trkpt lat="45.97946" lon="6.46463">
        <ele>1398.5</ele>
        <time>2019-06-18T13:35:09Z</time>
      </trkpt>
      <trkpt lat="45.97942" lon="6.46466">
        <ele>1399.1</ele>
        <time>2019-06-18T13:35:14Z</time>
      </trkpt>
      <trkpt lat="45.97937" lon="6.46468">
        <ele>1400</ele>
        <time>2019-06-18T13:35:20Z</time>
      </trkpt>
      <trkpt lat="45.97933" lon="6.46473">
        <ele>1400.1</ele>
        <time>2019-06-18T13:35:26Z</time>
      </trkpt>
      <trkpt lat="45.97916" lon="6.46467">
        <ele>1401.2</ele>
        <time>2019-06-18T13:36:05Z</time>
      </trkpt>
      <trkpt lat="45.9791" lon="6.46465">
        <ele>1400.1</ele>
        <time>2019-06-18T13:36:18Z</time>
      </trkpt>
      <trkpt lat="45.97906" lon="6.46462">
        <ele>1399.8</ele>
        <time>2019-06-18T13:36:25Z</time>
      </trkpt>
      <trkpt lat="45.97902" lon="6.46459">
        <ele>1399.6</ele>
        <time>2019-06-18T13:36:29Z</time>
      </trkpt>
      <trkpt lat="45.97897" lon="6.46457">
        <ele>1399.1</ele>
        <time>2019-06-18T13:36:34Z</time>
      </trkpt>
      <trkpt lat="45.97892" lon="6.46454">
        <ele>1398.5</ele>
        <time>2019-06-18T13:36:40Z</time>
      </trkpt>
      <trkpt lat="45.97888" lon="6.46449">
        <ele>1398.3</ele>
        <time>2019-06-18T13:36:46Z</time>
      </trkpt>
      <trkpt lat="45.97884" lon="6.46445">
        <ele>1398</ele>
        <time>2019-06-18T13:36:50Z</time>
      </trkpt>
      <trkpt lat="45.97879" lon="6.46443">
        <ele>1397.2</ele>
        <time>2019-06-18T13:36:55Z</time>
      </trkpt>
      <trkpt lat="45.97876" lon="6.46438">
        <ele>1396.1</ele>
        <time>2019-06-18T13:37:02Z</time>
      </trkpt>
      <trkpt lat="45.97872" lon="6.46434">
        <ele>1394.6</ele>
        <time>2019-06-18T13:37:10Z</time>
      </trkpt>
      <trkpt lat="45.97867" lon="6.46431">
        <ele>1394.1</ele>
        <time>2019-06-18T13:37:14Z</time>
      </trkpt>
      <trkpt lat="45.97863" lon="6.46428">
        <ele>1393.4</ele>
        <time>2019-06-18T13:37:19Z</time>
      </trkpt>
      <trkpt lat="45.9786" lon="6.46422">
        <ele>1392.4</ele>
        <time>2019-06-18T13:37:25Z</time>
      </trkpt>
      <trkpt lat="45.97857" lon="6.46417">
        <ele>1391.1</ele>
        <time>2019-06-18T13:37:31Z</time>
      </trkpt>
      <trkpt lat="45.97851" lon="6.46408">
        <ele>1389</ele>
        <time>2019-06-18T13:37:42Z</time>
      </trkpt>
      <trkpt lat="45.97847" lon="6.46402">
        <ele>1388.8</ele>
        <time>2019-06-18T13:37:47Z</time>
      </trkpt>
      <trkpt lat="45.97843" lon="6.46398">
        <ele>1388.7</ele>
        <time>2019-06-18T13:37:52Z</time>
      </trkpt>
      <trkpt lat="45.97838" lon="6.46395">
        <ele>1388.2</ele>
        <time>2019-06-18T13:37:58Z</time>
      </trkpt>
      <trkpt lat="45.97834" lon="6.4639">
        <ele>1387.6</ele>
        <time>2019-06-18T13:38:02Z</time>
      </trkpt>
      <trkpt lat="45.97831" lon="6.46384">
        <ele>1387</ele>
        <time>2019-06-18T13:38:06Z</time>
      </trkpt>
      <trkpt lat="45.97827" lon="6.46377">
        <ele>1385.9</ele>
        <time>2019-06-18T13:38:12Z</time>
      </trkpt>
      <trkpt lat="45.97823" lon="6.46374">
        <ele>1384.6</ele>
        <time>2019-06-18T13:38:18Z</time>
      </trkpt>
      <trkpt lat="45.97818" lon="6.46375">
        <ele>1380.6</ele>
        <time>2019-06-18T13:38:34Z</time>
      </trkpt>
      <trkpt lat="45.97814" lon="6.46372">
        <ele>1379.9</ele>
        <time>2019-06-18T13:38:37Z</time>
      </trkpt>
      <trkpt lat="45.97809" lon="6.46369">
        <ele>1379.1</ele>
        <time>2019-06-18T13:38:41Z</time>
      </trkpt>
      <trkpt lat="45.97804" lon="6.46366">
        <ele>1378.2</ele>
        <time>2019-06-18T13:38:46Z</time>
      </trkpt>
      <trkpt lat="45.97799" lon="6.46365">
        <ele>1377.3</ele>
        <time>2019-06-18T13:38:50Z</time>
      </trkpt>
      <trkpt lat="45.97794" lon="6.46362">
        <ele>1376.2</ele>
        <time>2019-06-18T13:38:55Z</time>
      </trkpt>
      <trkpt lat="45.97789" lon="6.46358">
        <ele>1375.5</ele>
        <time>2019-06-18T13:38:59Z</time>
      </trkpt>
      <trkpt lat="45.97785" lon="6.46353">
        <ele>1374.8</ele>
        <time>2019-06-18T13:39:03Z</time>
      </trkpt>
      <trkpt lat="45.97783" lon="6.46347">
        <ele>1373.1</ele>
        <time>2019-06-18T13:39:14Z</time>
      </trkpt>
      <trkpt lat="45.9778" lon="6.46341">
        <ele>1368.9</ele>
        <time>2019-06-18T13:39:27Z</time>
      </trkpt>
      <trkpt lat="45.97775" lon="6.46332">
        <ele>1362.5</ele>
        <time>2019-06-18T13:39:54Z</time>
      </trkpt>
      <trkpt lat="45.97771" lon="6.46328">
        <ele>1360.2</ele>
        <time>2019-06-18T13:40:00Z</time>
      </trkpt>
      <trkpt lat="45.97768" lon="6.46322">
        <ele>1358</ele>
        <time>2019-06-18T13:40:06Z</time>
      </trkpt>
      <trkpt lat="45.97766" lon="6.46316">
        <ele>1356.1</ele>
        <time>2019-06-18T13:40:11Z</time>
      </trkpt>
      <trkpt lat="45.97765" lon="6.4631">
        <ele>1354.2</ele>
        <time>2019-06-18T13:40:17Z</time>
      </trkpt>
      <trkpt lat="45.97763" lon="6.46303">
        <ele>1352.9</ele>
        <time>2019-06-18T13:40:22Z</time>
      </trkpt>
      <trkpt lat="45.97761" lon="6.46296">
        <ele>1352.1</ele>
        <time>2019-06-18T13:40:27Z</time>
      </trkpt>
      <trkpt lat="45.97756" lon="6.46297">
        <ele>1350.8</ele>
        <time>2019-06-18T13:40:37Z</time>
      </trkpt>
      <trkpt lat="45.97753" lon="6.46291">
        <ele>1350.4</ele>
        <time>2019-06-18T13:40:41Z</time>
      </trkpt>
      <trkpt lat="45.9775" lon="6.46285">
        <ele>1350.2</ele>
        <time>2019-06-18T13:40:44Z</time>
      </trkpt>
      <trkpt lat="45.97747" lon="6.46279">
        <ele>1350</ele>
        <time>2019-06-18T13:40:48Z</time>
      </trkpt>
      <trkpt lat="45.97746" lon="6.46273">
        <ele>1349.7</ele>
        <time>2019-06-18T13:40:52Z</time>
      </trkpt>
      <trkpt lat="45.97744" lon="6.46266">
        <ele>1349.3</ele>
        <time>2019-06-18T13:40:57Z</time>
      </trkpt>
      <trkpt lat="45.97741" lon="6.4626">
        <ele>1348.9</ele>
        <time>2019-06-18T13:41:02Z</time>
      </trkpt>
      <trkpt lat="45.97737" lon="6.46254">
        <ele>1348.2</ele>
        <time>2019-06-18T13:41:08Z</time>
      </trkpt>
      <trkpt lat="45.97733" lon="6.4625">
        <ele>1347.9</ele>
        <time>2019-06-18T13:41:12Z</time>
      </trkpt>
      <trkpt lat="45.97729" lon="6.46244">
        <ele>1347.5</ele>
        <time>2019-06-18T13:41:17Z</time>
      </trkpt>
      <trkpt lat="45.97725" lon="6.4624">
        <ele>1347.1</ele>
        <time>2019-06-18T13:41:21Z</time>
      </trkpt>
      <trkpt lat="45.97722" lon="6.46235">
        <ele>1346.7</ele>
        <time>2019-06-18T13:41:25Z</time>
      </trkpt>
      <trkpt lat="45.97718" lon="6.46229">
        <ele>1346.1</ele>
        <time>2019-06-18T13:41:30Z</time>
      </trkpt>
      <trkpt lat="45.97716" lon="6.46222">
        <ele>1345.6</ele>
        <time>2019-06-18T13:41:35Z</time>
      </trkpt>
      <trkpt lat="45.97712" lon="6.46215">
        <ele>1345.4</ele>
        <time>2019-06-18T13:41:38Z</time>
      </trkpt>
      <trkpt lat="45.97709" lon="6.46209">
        <ele>1345.2</ele>
        <time>2019-06-18T13:41:41Z</time>
      </trkpt>
      <trkpt lat="45.97707" lon="6.46203">
        <ele>1345</ele>
        <time>2019-06-18T13:41:46Z</time>
      </trkpt>
      <trkpt lat="45.97704" lon="6.46197">
        <ele>1344.8</ele>
        <time>2019-06-18T13:41:51Z</time>
      </trkpt>
      <trkpt lat="45.977" lon="6.46191">
        <ele>1344.6</ele>
        <time>2019-06-18T13:41:55Z</time>
      </trkpt>
      <trkpt lat="45.97697" lon="6.46185">
        <ele>1344.1</ele>
        <time>2019-06-18T13:42:01Z</time>
      </trkpt>
      <trkpt lat="45.97694" lon="6.46179">
        <ele>1343.5</ele>
        <time>2019-06-18T13:42:06Z</time>
      </trkpt>
      <trkpt lat="45.97691" lon="6.46173">
        <ele>1343.1</ele>
        <time>2019-06-18T13:42:10Z</time>
      </trkpt>
      <trkpt lat="45.97689" lon="6.46168">
        <ele>1342.8</ele>
        <time>2019-06-18T13:42:16Z</time>
      </trkpt>
      <trkpt lat="45.97684" lon="6.46164">
        <ele>1341.2</ele>
        <time>2019-06-18T13:42:26Z</time>
      </trkpt>
      <trkpt lat="45.9768" lon="6.4616">
        <ele>1339.7</ele>
        <time>2019-06-18T13:42:32Z</time>
      </trkpt>
      <trkpt lat="45.97675" lon="6.46158">
        <ele>1338.4</ele>
        <time>2019-06-18T13:42:37Z</time>
      </trkpt>
      <trkpt lat="45.97672" lon="6.46151">
        <ele>1337.3</ele>
        <time>2019-06-18T13:42:42Z</time>
      </trkpt>
      <trkpt lat="45.97669" lon="6.46147">
        <ele>1336.6</ele>
        <time>2019-06-18T13:42:47Z</time>
      </trkpt>
      <trkpt lat="45.97673" lon="6.46136">
        <ele>1330.6</ele>
        <time>2019-06-18T13:43:18Z</time>
      </trkpt>
      <trkpt lat="45.97677" lon="6.46133">
        <ele>1329.2</ele>
        <time>2019-06-18T13:43:23Z</time>
      </trkpt>
      <trkpt lat="45.97682" lon="6.46129">
        <ele>1327.5</ele>
        <time>2019-06-18T13:43:30Z</time>
      </trkpt>
      <trkpt lat="45.97686" lon="6.46124">
        <ele>1326.3</ele>
        <time>2019-06-18T13:43:35Z</time>
      </trkpt>
      <trkpt lat="45.97689" lon="6.46118">
        <ele>1325</ele>
        <time>2019-06-18T13:43:40Z</time>
      </trkpt>
      <trkpt lat="45.97691" lon="6.46112">
        <ele>1323.3</ele>
        <time>2019-06-18T13:43:46Z</time>
      </trkpt>
      <trkpt lat="45.97694" lon="6.46106">
        <ele>1322.3</ele>
        <time>2019-06-18T13:43:50Z</time>
      </trkpt>
      <trkpt lat="45.97696" lon="6.461">
        <ele>1321.3</ele>
        <time>2019-06-18T13:43:54Z</time>
      </trkpt>
      <trkpt lat="45.97699" lon="6.46096">
        <ele>1319.8</ele>
        <time>2019-06-18T13:44:04Z</time>
      </trkpt>
      <trkpt lat="45.97698" lon="6.46102">
        <ele>1311.3</ele>
        <time>2019-06-18T13:44:53Z</time>
      </trkpt>
      <trkpt lat="45.97701" lon="6.46096">
        <ele>1306.4</ele>
        <time>2019-06-18T13:46:18Z</time>
      </trkpt>
      <trkpt lat="45.97706" lon="6.46094">
        <ele>1307.9</ele>
        <time>2019-06-18T13:46:38Z</time>
      </trkpt>
      <trkpt lat="45.97707" lon="6.46088">
        <ele>1308.8</ele>
        <time>2019-06-18T13:46:45Z</time>
      </trkpt>
      <trkpt lat="45.97705" lon="6.46082">
        <ele>1309.2</ele>
        <time>2019-06-18T13:46:53Z</time>
      </trkpt>
      <trkpt lat="45.97709" lon="6.46081">
        <ele>1307.6</ele>
        <time>2019-06-18T13:47:20Z</time>
      </trkpt>
      <trkpt lat="45.97712" lon="6.46076">
        <ele>1307.6</ele>
        <time>2019-06-18T13:47:31Z</time>
      </trkpt>
      <trkpt lat="45.97716" lon="6.4607">
        <ele>1307.5</ele>
        <time>2019-06-18T13:47:44Z</time>
      </trkpt>
      <trkpt lat="45.9772" lon="6.46069">
        <ele>1306.7</ele>
        <time>2019-06-18T13:47:54Z</time>
      </trkpt>
      <trkpt lat="45.9772" lon="6.46062">
        <ele>1306.3</ele>
        <time>2019-06-18T13:48:13Z</time>
      </trkpt>
      <trkpt lat="45.9772" lon="6.46056">
        <ele>1307.1</ele>
        <time>2019-06-18T13:48:26Z</time>
      </trkpt>
      <trkpt lat="45.97724" lon="6.46053">
        <ele>1308.5</ele>
        <time>2019-06-18T13:48:41Z</time>
      </trkpt>
      <trkpt lat="45.97726" lon="6.46046">
        <ele>1309.1</ele>
        <time>2019-06-18T13:48:55Z</time>
      </trkpt>
      <trkpt lat="45.97726" lon="6.4604">
        <ele>1309.8</ele>
        <time>2019-06-18T13:49:03Z</time>
      </trkpt>
      <trkpt lat="45.97728" lon="6.46033">
        <ele>1310.6</ele>
        <time>2019-06-18T13:49:14Z</time>
      </trkpt>
      <trkpt lat="45.97728" lon="6.46026">
        <ele>1310.7</ele>
        <time>2019-06-18T13:49:23Z</time>
      </trkpt>
      <trkpt lat="45.97731" lon="6.4602">
        <ele>1310.3</ele>
        <time>2019-06-18T13:49:32Z</time>
      </trkpt>
      <trkpt lat="45.97733" lon="6.46015">
        <ele>1309.9</ele>
        <time>2019-06-18T13:49:38Z</time>
      </trkpt>
      <trkpt lat="45.97735" lon="6.46008">
        <ele>1309.7</ele>
        <time>2019-06-18T13:49:45Z</time>
      </trkpt>
      <trkpt lat="45.97737" lon="6.46002">
        <ele>1310.2</ele>
        <time>2019-06-18T13:49:55Z</time>
      </trkpt>
      <trkpt lat="45.9774" lon="6.45997">
        <ele>1310.8</ele>
        <time>2019-06-18T13:50:05Z</time>
      </trkpt>
      <trkpt lat="45.97745" lon="6.4599">
        <ele>1317</ele>
        <time>2019-06-18T13:50:43Z</time>
      </trkpt>
      <trkpt lat="45.97749" lon="6.45986">
        <ele>1317.5</ele>
        <time>2019-06-18T13:50:48Z</time>
      </trkpt>
      <trkpt lat="45.97754" lon="6.45984">
        <ele>1317.3</ele>
        <time>2019-06-18T13:50:56Z</time>
      </trkpt>
      <trkpt lat="45.97758" lon="6.45982">
        <ele>1318.5</ele>
        <time>2019-06-18T13:51:36Z</time>
      </trkpt>
      <trkpt lat="45.97763" lon="6.45977">
        <ele>1319.2</ele>
        <time>2019-06-18T13:51:40Z</time>
      </trkpt>
      <trkpt lat="45.97767" lon="6.45973">
        <ele>1320.2</ele>
        <time>2019-06-18T13:51:45Z</time>
      </trkpt>
      <trkpt lat="45.9777" lon="6.45966">
        <ele>1321.1</ele>
        <time>2019-06-18T13:51:49Z</time>
      </trkpt>
      <trkpt lat="45.97773" lon="6.45961">
        <ele>1322.5</ele>
        <time>2019-06-18T13:51:55Z</time>
      </trkpt>
      <trkpt lat="45.97777" lon="6.45955">
        <ele>1325.5</ele>
        <time>2019-06-18T13:52:12Z</time>
      </trkpt>
      <trkpt lat="45.97784" lon="6.45947">
        <ele>1328.3</ele>
        <time>2019-06-18T13:53:23Z</time>
      </trkpt>
      <trkpt lat="45.97779" lon="6.45948">
        <ele>1328.6</ele>
        <time>2019-06-18T13:53:40Z</time>
      </trkpt>
      <trkpt lat="45.97767" lon="6.4594">
        <ele>1330.7</ele>
        <time>2019-06-18T13:54:05Z</time>
      </trkpt>
      <trkpt lat="45.9776" lon="6.45937">
        <ele>1331.6</ele>
        <time>2019-06-18T13:54:40Z</time>
      </trkpt>
      <trkpt lat="45.97759" lon="6.45931">
        <ele>1331.7</ele>
        <time>2019-06-18T13:54:56Z</time>
      </trkpt>
      <trkpt lat="45.97755" lon="6.45926">
        <ele>1331.5</ele>
        <time>2019-06-18T13:55:10Z</time>
      </trkpt>
      <trkpt lat="45.97751" lon="6.45923">
        <ele>1331.7</ele>
        <time>2019-06-18T13:55:15Z</time>
      </trkpt>
      <trkpt lat="45.97743" lon="6.45921">
        <ele>1330.4</ele>
        <time>2019-06-18T13:55:25Z</time>
      </trkpt>
      <trkpt lat="45.97738" lon="6.45919">
        <ele>1330.3</ele>
        <time>2019-06-18T13:55:30Z</time>
      </trkpt>
      <trkpt lat="45.97733" lon="6.45917">
        <ele>1330.6</ele>
        <time>2019-06-18T13:55:36Z</time>
      </trkpt>
      <trkpt lat="45.97727" lon="6.45916">
        <ele>1331</ele>
        <time>2019-06-18T13:55:40Z</time>
      </trkpt>
      <trkpt lat="45.97723" lon="6.45914">
        <ele>1331.5</ele>
        <time>2019-06-18T13:55:44Z</time>
      </trkpt>
      <trkpt lat="45.97719" lon="6.45912">
        <ele>1332</ele>
        <time>2019-06-18T13:55:49Z</time>
      </trkpt>
      <trkpt lat="45.97714" lon="6.45908">
        <ele>1332.4</ele>
        <time>2019-06-18T13:55:53Z</time>
      </trkpt>
      <trkpt lat="45.9771" lon="6.45903">
        <ele>1333.1</ele>
        <time>2019-06-18T13:55:58Z</time>
      </trkpt>
      <trkpt lat="45.97707" lon="6.45898">
        <ele>1334.1</ele>
        <time>2019-06-18T13:56:03Z</time>
      </trkpt>
      <trkpt lat="45.97704" lon="6.45893">
        <ele>1336.4</ele>
        <time>2019-06-18T13:56:12Z</time>
      </trkpt>
      <trkpt lat="45.97699" lon="6.45888">
        <ele>1338.1</ele>
        <time>2019-06-18T13:56:18Z</time>
      </trkpt>
      <trkpt lat="45.97695" lon="6.45884">
        <ele>1338.8</ele>
        <time>2019-06-18T13:56:21Z</time>
      </trkpt>
      <trkpt lat="45.97692" lon="6.4588">
        <ele>1339.4</ele>
        <time>2019-06-18T13:56:25Z</time>
      </trkpt>
      <trkpt lat="45.97689" lon="6.45873">
        <ele>1339.7</ele>
        <time>2019-06-18T13:56:30Z</time>
      </trkpt>
      <trkpt lat="45.97686" lon="6.45868">
        <ele>1339.7</ele>
        <time>2019-06-18T13:56:34Z</time>
      </trkpt>
      <trkpt lat="45.97683" lon="6.45863">
        <ele>1339.9</ele>
        <time>2019-06-18T13:56:41Z</time>
      </trkpt>
      <trkpt lat="45.97678" lon="6.45862">
        <ele>1340</ele>
        <time>2019-06-18T13:56:46Z</time>
      </trkpt>
      <trkpt lat="45.97675" lon="6.45855">
        <ele>1340.5</ele>
        <time>2019-06-18T13:56:54Z</time>
      </trkpt>
      <trkpt lat="45.97675" lon="6.45848">
        <ele>1340.7</ele>
        <time>2019-06-18T13:57:00Z</time>
      </trkpt>
      <trkpt lat="45.97676" lon="6.45841">
        <ele>1340.4</ele>
        <time>2019-06-18T13:57:06Z</time>
      </trkpt>
      <trkpt lat="45.97677" lon="6.45834">
        <ele>1339.8</ele>
        <time>2019-06-18T13:57:11Z</time>
      </trkpt>
      <trkpt lat="45.97676" lon="6.45827">
        <ele>1339</ele>
        <time>2019-06-18T13:57:16Z</time>
      </trkpt>
      <trkpt lat="45.97675" lon="6.45819">
        <ele>1338.3</ele>
        <time>2019-06-18T13:57:21Z</time>
      </trkpt>
      <trkpt lat="45.97674" lon="6.45813">
        <ele>1337.3</ele>
        <time>2019-06-18T13:57:26Z</time>
      </trkpt>
      <trkpt lat="45.97673" lon="6.45806">
        <ele>1336.5</ele>
        <time>2019-06-18T13:57:30Z</time>
      </trkpt>
      <trkpt lat="45.97673" lon="6.458">
        <ele>1335.7</ele>
        <time>2019-06-18T13:57:34Z</time>
      </trkpt>
      <trkpt lat="45.97671" lon="6.45793">
        <ele>1334.7</ele>
        <time>2019-06-18T13:57:39Z</time>
      </trkpt>
      <trkpt lat="45.97668" lon="6.45786">
        <ele>1333.8</ele>
        <time>2019-06-18T13:57:45Z</time>
      </trkpt>
      <trkpt lat="45.97667" lon="6.45779">
        <ele>1333.3</ele>
        <time>2019-06-18T13:57:50Z</time>
      </trkpt>
      <trkpt lat="45.97666" lon="6.45772">
        <ele>1333</ele>
        <time>2019-06-18T13:57:56Z</time>
      </trkpt>
      <trkpt lat="45.97663" lon="6.45765">
        <ele>1332.7</ele>
        <time>2019-06-18T13:58:01Z</time>
      </trkpt>
      <trkpt lat="45.97661" lon="6.45759">
        <ele>1332.6</ele>
        <time>2019-06-18T13:58:05Z</time>
      </trkpt>
      <trkpt lat="45.97659" lon="6.45752">
        <ele>1332.5</ele>
        <time>2019-06-18T13:58:10Z</time>
      </trkpt>
      <trkpt lat="45.97656" lon="6.45746">
        <ele>1332.2</ele>
        <time>2019-06-18T13:58:18Z</time>
      </trkpt>
      <trkpt lat="45.97654" lon="6.4574">
        <ele>1332</ele>
        <time>2019-06-18T13:58:23Z</time>
      </trkpt>
      <trkpt lat="45.97653" lon="6.45734">
        <ele>1332</ele>
        <time>2019-06-18T13:58:28Z</time>
      </trkpt>
      <trkpt lat="45.97652" lon="6.45726">
        <ele>1332.6</ele>
        <time>2019-06-18T13:58:33Z</time>
      </trkpt>
      <trkpt lat="45.9765" lon="6.45719">
        <ele>1333.1</ele>
        <time>2019-06-18T13:58:37Z</time>
      </trkpt>
      <trkpt lat="45.97648" lon="6.45712">
        <ele>1334.2</ele>
        <time>2019-06-18T13:58:44Z</time>
      </trkpt>
      <trkpt lat="45.97646" lon="6.45705">
        <ele>1335.3</ele>
        <time>2019-06-18T13:58:52Z</time>
      </trkpt>
      <trkpt lat="45.97643" lon="6.45699">
        <ele>1336.1</ele>
        <time>2019-06-18T13:58:59Z</time>
      </trkpt>
      <trkpt lat="45.97642" lon="6.45692">
        <ele>1336.3</ele>
        <time>2019-06-18T13:59:03Z</time>
      </trkpt>
      <trkpt lat="45.97641" lon="6.45685">
        <ele>1336.3</ele>
        <time>2019-06-18T13:59:10Z</time>
      </trkpt>
      <trkpt lat="45.97641" lon="6.45677">
        <ele>1336.5</ele>
        <time>2019-06-18T13:59:16Z</time>
      </trkpt>
      <trkpt lat="45.9764" lon="6.4567">
        <ele>1336.9</ele>
        <time>2019-06-18T13:59:20Z</time>
      </trkpt>
      <trkpt lat="45.97638" lon="6.45663">
        <ele>1338.4</ele>
        <time>2019-06-18T13:59:27Z</time>
      </trkpt>
      <trkpt lat="45.97635" lon="6.45656">
        <ele>1339.6</ele>
        <time>2019-06-18T13:59:31Z</time>
      </trkpt>
      <trkpt lat="45.97634" lon="6.45647">
        <ele>1341</ele>
        <time>2019-06-18T13:59:35Z</time>
      </trkpt>
      <trkpt lat="45.97635" lon="6.4564">
        <ele>1342.2</ele>
        <time>2019-06-18T13:59:38Z</time>
      </trkpt>
      <trkpt lat="45.97634" lon="6.45632">
        <ele>1344.5</ele>
        <time>2019-06-18T13:59:43Z</time>
      </trkpt>
    </trkseg>
  </trk>
</gpx>